<?xml version="1.0" encoding="UTF-8" standalone="no" ?>
<gpx xmlns="http://www.topografix.com/GPX/1/1" xmlns:xsi="http://www.w3.org/2001/XMLSchema-instance" xsi:schemaLocation="http://www.topografix.com/GPX/1/1 http://www.topografix.com/GPX/1/1/gpx.xsd" version="1.1" creator="VisuGPX - https://www.visugpx.com">
  <metadata>
    <name>06-APR-22 09:14:50</name>
  </metadata>
  <trk>
    <name><![CDATA[06-APR-22 09:14:50]]></name>
    <trkseg>
      <trkpt lat="43.65426" lon="6.12717">
        <ele>486.56</ele>
        <time>2022-04-06T12:43:09Z</time>
      </trkpt>
      <trkpt lat="43.65426" lon="6.12713">
        <ele>519.25</ele>
        <time>2022-04-06T12:43:33Z</time>
      </trkpt>
      <trkpt lat="43.65433" lon="6.12709">
        <ele>525.02</ele>
        <time>2022-04-06T12:43:55Z</time>
      </trkpt>
      <trkpt lat="43.65432" lon="6.12708">
        <ele>525.5</ele>
        <time>2022-04-06T12:44:04Z</time>
      </trkpt>
      <trkpt lat="43.65427" lon="6.12701">
        <ele>525.02</ele>
        <time>2022-04-06T12:44:10Z</time>
      </trkpt>
      <trkpt lat="43.65426" lon="6.1269">
        <ele>524.06</ele>
        <time>2022-04-06T12:44:17Z</time>
      </trkpt>
      <trkpt lat="43.65425" lon="6.12682">
        <ele>523.58</ele>
        <time>2022-04-06T12:44:31Z</time>
      </trkpt>
      <trkpt lat="43.65425" lon="6.12682">
        <ele>524.06</ele>
        <time>2022-04-06T12:44:34Z</time>
      </trkpt>
      <trkpt lat="43.65404" lon="6.12671">
        <ele>525.02</ele>
        <time>2022-04-06T12:44:52Z</time>
      </trkpt>
      <trkpt lat="43.65403" lon="6.12668">
        <ele>525.02</ele>
        <time>2022-04-06T12:44:54Z</time>
      </trkpt>
      <trkpt lat="43.65397" lon="6.12637">
        <ele>529.34</ele>
        <time>2022-04-06T12:45:12Z</time>
      </trkpt>
      <trkpt lat="43.65396" lon="6.12636">
        <ele>529.82</ele>
        <time>2022-04-06T12:45:13Z</time>
      </trkpt>
      <trkpt lat="43.65375" lon="6.12621">
        <ele>535.59</ele>
        <time>2022-04-06T12:45:30Z</time>
      </trkpt>
      <trkpt lat="43.65358" lon="6.12605">
        <ele>538.48</ele>
        <time>2022-04-06T12:45:45Z</time>
      </trkpt>
      <trkpt lat="43.65341" lon="6.1259">
        <ele>539.44</ele>
        <time>2022-04-06T12:46:00Z</time>
      </trkpt>
      <trkpt lat="43.65317" lon="6.12573">
        <ele>537.03</ele>
        <time>2022-04-06T12:46:20Z</time>
      </trkpt>
      <trkpt lat="43.65297" lon="6.12557">
        <ele>534.63</ele>
        <time>2022-04-06T12:46:38Z</time>
      </trkpt>
      <trkpt lat="43.65286" lon="6.12546">
        <ele>537.51</ele>
        <time>2022-04-06T12:46:50Z</time>
      </trkpt>
      <trkpt lat="43.65282" lon="6.12543">
        <ele>538.48</ele>
        <time>2022-04-06T12:46:54Z</time>
      </trkpt>
      <trkpt lat="43.65265" lon="6.12525">
        <ele>539.92</ele>
        <time>2022-04-06T12:47:10Z</time>
      </trkpt>
      <trkpt lat="43.65249" lon="6.12511">
        <ele>536.55</ele>
        <time>2022-04-06T12:47:26Z</time>
      </trkpt>
      <trkpt lat="43.65234" lon="6.12493">
        <ele>531.27</ele>
        <time>2022-04-06T12:47:42Z</time>
      </trkpt>
      <trkpt lat="43.65219" lon="6.1247">
        <ele>525.98</ele>
        <time>2022-04-06T12:47:59Z</time>
      </trkpt>
      <trkpt lat="43.65209" lon="6.1245">
        <ele>522.13</ele>
        <time>2022-04-06T12:48:15Z</time>
      </trkpt>
      <trkpt lat="43.65202" lon="6.12433">
        <ele>520.21</ele>
        <time>2022-04-06T12:48:31Z</time>
      </trkpt>
      <trkpt lat="43.65189" lon="6.12411">
        <ele>522.13</ele>
        <time>2022-04-06T12:48:51Z</time>
      </trkpt>
      <trkpt lat="43.65176" lon="6.12387">
        <ele>528.86</ele>
        <time>2022-04-06T12:49:06Z</time>
      </trkpt>
      <trkpt lat="43.65163" lon="6.12366">
        <ele>533.67</ele>
        <time>2022-04-06T12:49:21Z</time>
      </trkpt>
      <trkpt lat="43.65149" lon="6.12351">
        <ele>537.51</ele>
        <time>2022-04-06T12:49:36Z</time>
      </trkpt>
      <trkpt lat="43.65136" lon="6.12339">
        <ele>540.88</ele>
        <time>2022-04-06T12:49:51Z</time>
      </trkpt>
      <trkpt lat="43.65124" lon="6.12304">
        <ele>538.96</ele>
        <time>2022-04-06T12:50:10Z</time>
      </trkpt>
      <trkpt lat="43.65119" lon="6.12283">
        <ele>542.32</ele>
        <time>2022-04-06T12:50:24Z</time>
      </trkpt>
      <trkpt lat="43.65119" lon="6.1228">
        <ele>542.8</ele>
        <time>2022-04-06T12:50:26Z</time>
      </trkpt>
      <trkpt lat="43.65112" lon="6.12246">
        <ele>541.84</ele>
        <time>2022-04-06T12:50:44Z</time>
      </trkpt>
      <trkpt lat="43.65109" lon="6.12223">
        <ele>545.2</ele>
        <time>2022-04-06T12:50:59Z</time>
      </trkpt>
      <trkpt lat="43.65109" lon="6.1222">
        <ele>545.69</ele>
        <time>2022-04-06T12:51:01Z</time>
      </trkpt>
      <trkpt lat="43.65102" lon="6.12194">
        <ele>545.2</ele>
        <time>2022-04-06T12:51:16Z</time>
      </trkpt>
      <trkpt lat="43.65097" lon="6.12182">
        <ele>544.72</ele>
        <time>2022-04-06T12:51:23Z</time>
      </trkpt>
      <trkpt lat="43.6509" lon="6.12158">
        <ele>542.32</ele>
        <time>2022-04-06T12:51:35Z</time>
      </trkpt>
      <trkpt lat="43.65089" lon="6.12154">
        <ele>541.84</ele>
        <time>2022-04-06T12:51:37Z</time>
      </trkpt>
      <trkpt lat="43.65084" lon="6.12127">
        <ele>541.84</ele>
        <time>2022-04-06T12:51:53Z</time>
      </trkpt>
      <trkpt lat="43.65082" lon="6.1212">
        <ele>541.84</ele>
        <time>2022-04-06T12:51:57Z</time>
      </trkpt>
      <trkpt lat="43.65078" lon="6.12095">
        <ele>540.4</ele>
        <time>2022-04-06T12:52:11Z</time>
      </trkpt>
      <trkpt lat="43.65072" lon="6.12063">
        <ele>540.88</ele>
        <time>2022-04-06T12:52:29Z</time>
      </trkpt>
      <trkpt lat="43.65068" lon="6.12034">
        <ele>543.28</ele>
        <time>2022-04-06T12:52:46Z</time>
      </trkpt>
      <trkpt lat="43.65064" lon="6.12008">
        <ele>541.84</ele>
        <time>2022-04-06T12:53:00Z</time>
      </trkpt>
      <trkpt lat="43.65063" lon="6.11996">
        <ele>540.4</ele>
        <time>2022-04-06T12:53:07Z</time>
      </trkpt>
      <trkpt lat="43.65057" lon="6.11968">
        <ele>538.96</ele>
        <time>2022-04-06T12:53:23Z</time>
      </trkpt>
      <trkpt lat="43.6505" lon="6.11945">
        <ele>540.4</ele>
        <time>2022-04-06T12:53:37Z</time>
      </trkpt>
      <trkpt lat="43.65043" lon="6.11922">
        <ele>541.84</ele>
        <time>2022-04-06T12:53:51Z</time>
      </trkpt>
      <trkpt lat="43.65041" lon="6.11917">
        <ele>541.36</ele>
        <time>2022-04-06T12:53:54Z</time>
      </trkpt>
      <trkpt lat="43.65036" lon="6.11893">
        <ele>540.88</ele>
        <time>2022-04-06T12:54:09Z</time>
      </trkpt>
      <trkpt lat="43.65031" lon="6.11871">
        <ele>540.4</ele>
        <time>2022-04-06T12:54:22Z</time>
      </trkpt>
      <trkpt lat="43.65025" lon="6.11846">
        <ele>543.28</ele>
        <time>2022-04-06T12:54:36Z</time>
      </trkpt>
      <trkpt lat="43.65018" lon="6.11826">
        <ele>542.32</ele>
        <time>2022-04-06T12:54:49Z</time>
      </trkpt>
      <trkpt lat="43.65005" lon="6.11797">
        <ele>540.88</ele>
        <time>2022-04-06T12:55:09Z</time>
      </trkpt>
      <trkpt lat="43.64997" lon="6.11773">
        <ele>541.84</ele>
        <time>2022-04-06T12:55:26Z</time>
      </trkpt>
      <trkpt lat="43.64991" lon="6.11751">
        <ele>545.2</ele>
        <time>2022-04-06T12:55:42Z</time>
      </trkpt>
      <trkpt lat="43.64977" lon="6.11725">
        <ele>546.65</ele>
        <time>2022-04-06T12:56:00Z</time>
      </trkpt>
      <trkpt lat="43.64967" lon="6.117">
        <ele>544.24</ele>
        <time>2022-04-06T12:56:16Z</time>
      </trkpt>
      <trkpt lat="43.64961" lon="6.11691">
        <ele>543.76</ele>
        <time>2022-04-06T12:56:23Z</time>
      </trkpt>
      <trkpt lat="43.64956" lon="6.11693">
        <ele>541.84</ele>
        <time>2022-04-06T12:56:28Z</time>
      </trkpt>
      <trkpt lat="43.64933" lon="6.11706">
        <ele>536.07</ele>
        <time>2022-04-06T12:56:50Z</time>
      </trkpt>
      <trkpt lat="43.64928" lon="6.11705">
        <ele>536.07</ele>
        <time>2022-04-06T12:57:07Z</time>
      </trkpt>
      <trkpt lat="43.64931" lon="6.11705">
        <ele>536.07</ele>
        <time>2022-04-06T12:57:13Z</time>
      </trkpt>
      <trkpt lat="43.6495" lon="6.11697">
        <ele>534.63</ele>
        <time>2022-04-06T12:57:29Z</time>
      </trkpt>
      <trkpt lat="43.64958" lon="6.11673">
        <ele>532.71</ele>
        <time>2022-04-06T12:57:44Z</time>
      </trkpt>
      <trkpt lat="43.64957" lon="6.1167">
        <ele>532.23</ele>
        <time>2022-04-06T12:57:46Z</time>
      </trkpt>
      <trkpt lat="43.64946" lon="6.11644">
        <ele>531.75</ele>
        <time>2022-04-06T12:58:02Z</time>
      </trkpt>
      <trkpt lat="43.64934" lon="6.11621">
        <ele>534.63</ele>
        <time>2022-04-06T12:58:17Z</time>
      </trkpt>
      <trkpt lat="43.64924" lon="6.116">
        <ele>536.07</ele>
        <time>2022-04-06T12:58:30Z</time>
      </trkpt>
      <trkpt lat="43.64911" lon="6.11572">
        <ele>536.55</ele>
        <time>2022-04-06T12:58:48Z</time>
      </trkpt>
      <trkpt lat="43.64904" lon="6.11552">
        <ele>538.48</ele>
        <time>2022-04-06T12:59:01Z</time>
      </trkpt>
      <trkpt lat="43.64895" lon="6.11527">
        <ele>538.96</ele>
        <time>2022-04-06T12:59:16Z</time>
      </trkpt>
      <trkpt lat="43.64885" lon="6.11501">
        <ele>539.44</ele>
        <time>2022-04-06T12:59:32Z</time>
      </trkpt>
      <trkpt lat="43.6488" lon="6.11492">
        <ele>539.92</ele>
        <time>2022-04-06T12:59:40Z</time>
      </trkpt>
      <trkpt lat="43.64861" lon="6.1147">
        <ele>540.88</ele>
        <time>2022-04-06T12:59:57Z</time>
      </trkpt>
      <trkpt lat="43.64843" lon="6.11452">
        <ele>543.28</ele>
        <time>2022-04-06T13:00:15Z</time>
      </trkpt>
      <trkpt lat="43.64828" lon="6.11437">
        <ele>545.69</ele>
        <time>2022-04-06T13:00:29Z</time>
      </trkpt>
      <trkpt lat="43.64815" lon="6.11422">
        <ele>545.2</ele>
        <time>2022-04-06T13:00:41Z</time>
      </trkpt>
      <trkpt lat="43.64803" lon="6.11393">
        <ele>541.36</ele>
        <time>2022-04-06T13:00:57Z</time>
      </trkpt>
      <trkpt lat="43.64798" lon="6.11371">
        <ele>537.99</ele>
        <time>2022-04-06T13:01:12Z</time>
      </trkpt>
      <trkpt lat="43.64789" lon="6.11349">
        <ele>534.63</ele>
        <time>2022-04-06T13:01:27Z</time>
      </trkpt>
      <trkpt lat="43.64786" lon="6.11349">
        <ele>535.11</ele>
        <time>2022-04-06T13:01:34Z</time>
      </trkpt>
      <trkpt lat="43.64769" lon="6.11358">
        <ele>534.15</ele>
        <time>2022-04-06T13:01:52Z</time>
      </trkpt>
      <trkpt lat="43.64754" lon="6.11373">
        <ele>531.75</ele>
        <time>2022-04-06T13:02:05Z</time>
      </trkpt>
      <trkpt lat="43.64745" lon="6.11386">
        <ele>530.79</ele>
        <time>2022-04-06T13:02:14Z</time>
      </trkpt>
      <trkpt lat="43.64739" lon="6.11398">
        <ele>529.34</ele>
        <time>2022-04-06T13:02:23Z</time>
      </trkpt>
      <trkpt lat="43.64727" lon="6.11426">
        <ele>525.5</ele>
        <time>2022-04-06T13:02:41Z</time>
      </trkpt>
      <trkpt lat="43.64717" lon="6.11451">
        <ele>524.54</ele>
        <time>2022-04-06T13:02:57Z</time>
      </trkpt>
      <trkpt lat="43.64707" lon="6.11474">
        <ele>523.09</ele>
        <time>2022-04-06T13:03:12Z</time>
      </trkpt>
      <trkpt lat="43.64696" lon="6.11498">
        <ele>521.65</ele>
        <time>2022-04-06T13:03:28Z</time>
      </trkpt>
      <trkpt lat="43.64684" lon="6.11517">
        <ele>522.61</ele>
        <time>2022-04-06T13:03:42Z</time>
      </trkpt>
      <trkpt lat="43.64668" lon="6.11543">
        <ele>522.13</ele>
        <time>2022-04-06T13:04:01Z</time>
      </trkpt>
      <trkpt lat="43.64658" lon="6.11554">
        <ele>522.13</ele>
        <time>2022-04-06T13:04:10Z</time>
      </trkpt>
      <trkpt lat="43.64644" lon="6.11582">
        <ele>523.09</ele>
        <time>2022-04-06T13:04:28Z</time>
      </trkpt>
      <trkpt lat="43.64629" lon="6.11599">
        <ele>522.61</ele>
        <time>2022-04-06T13:04:43Z</time>
      </trkpt>
      <trkpt lat="43.64628" lon="6.116">
        <ele>523.09</ele>
        <time>2022-04-06T13:04:44Z</time>
      </trkpt>
      <trkpt lat="43.64627" lon="6.11609">
        <ele>522.13</ele>
        <time>2022-04-06T13:04:50Z</time>
      </trkpt>
      <trkpt lat="43.64629" lon="6.11633">
        <ele>519.73</ele>
        <time>2022-04-06T13:05:04Z</time>
      </trkpt>
      <trkpt lat="43.64623" lon="6.11659">
        <ele>517.81</ele>
        <time>2022-04-06T13:05:20Z</time>
      </trkpt>
      <trkpt lat="43.64622" lon="6.1166">
        <ele>517.33</ele>
        <time>2022-04-06T13:05:21Z</time>
      </trkpt>
      <trkpt lat="43.64604" lon="6.11684">
        <ele>516.37</ele>
        <time>2022-04-06T13:05:39Z</time>
      </trkpt>
      <trkpt lat="43.64603" lon="6.11688">
        <ele>516.37</ele>
        <time>2022-04-06T13:05:41Z</time>
      </trkpt>
      <trkpt lat="43.646" lon="6.1171">
        <ele>515.88</ele>
        <time>2022-04-06T13:05:55Z</time>
      </trkpt>
      <trkpt lat="43.64588" lon="6.11722">
        <ele>519.25</ele>
        <time>2022-04-06T13:06:06Z</time>
      </trkpt>
      <trkpt lat="43.64574" lon="6.11744">
        <ele>518.29</ele>
        <time>2022-04-06T13:06:22Z</time>
      </trkpt>
      <trkpt lat="43.64559" lon="6.11751">
        <ele>519.25</ele>
        <time>2022-04-06T13:06:35Z</time>
      </trkpt>
      <trkpt lat="43.6454" lon="6.11754">
        <ele>522.13</ele>
        <time>2022-04-06T13:06:50Z</time>
      </trkpt>
      <trkpt lat="43.64538" lon="6.11755">
        <ele>522.13</ele>
        <time>2022-04-06T13:06:52Z</time>
      </trkpt>
      <trkpt lat="43.64522" lon="6.1177">
        <ele>524.54</ele>
        <time>2022-04-06T13:07:06Z</time>
      </trkpt>
      <trkpt lat="43.64507" lon="6.11787">
        <ele>523.09</ele>
        <time>2022-04-06T13:07:20Z</time>
      </trkpt>
      <trkpt lat="43.64503" lon="6.11804">
        <ele>521.65</ele>
        <time>2022-04-06T13:07:30Z</time>
      </trkpt>
      <trkpt lat="43.64487" lon="6.11823">
        <ele>517.81</ele>
        <time>2022-04-06T13:07:46Z</time>
      </trkpt>
      <trkpt lat="43.64482" lon="6.11824">
        <ele>517.33</ele>
        <time>2022-04-06T13:07:50Z</time>
      </trkpt>
      <trkpt lat="43.64465" lon="6.1182">
        <ele>517.33</ele>
        <time>2022-04-06T13:08:04Z</time>
      </trkpt>
      <trkpt lat="43.64453" lon="6.11847">
        <ele>520.21</ele>
        <time>2022-04-06T13:08:22Z</time>
      </trkpt>
      <trkpt lat="43.64453" lon="6.11849">
        <ele>520.21</ele>
        <time>2022-04-06T13:08:23Z</time>
      </trkpt>
      <trkpt lat="43.64434" lon="6.11872">
        <ele>518.77</ele>
        <time>2022-04-06T13:08:42Z</time>
      </trkpt>
      <trkpt lat="43.64413" lon="6.11878">
        <ele>519.25</ele>
        <time>2022-04-06T13:08:59Z</time>
      </trkpt>
      <trkpt lat="43.64405" lon="6.1188">
        <ele>519.73</ele>
        <time>2022-04-06T13:09:05Z</time>
      </trkpt>
      <trkpt lat="43.64394" lon="6.11897">
        <ele>520.21</ele>
        <time>2022-04-06T13:09:18Z</time>
      </trkpt>
      <trkpt lat="43.64393" lon="6.1191">
        <ele>518.29</ele>
        <time>2022-04-06T13:09:26Z</time>
      </trkpt>
      <trkpt lat="43.64387" lon="6.11934">
        <ele>514.92</ele>
        <time>2022-04-06T13:09:40Z</time>
      </trkpt>
      <trkpt lat="43.64388" lon="6.11941">
        <ele>513</ele>
        <time>2022-04-06T13:09:45Z</time>
      </trkpt>
      <trkpt lat="43.64386" lon="6.11966">
        <ele>510.6</ele>
        <time>2022-04-06T13:10:01Z</time>
      </trkpt>
      <trkpt lat="43.64387" lon="6.11989">
        <ele>508.19</ele>
        <time>2022-04-06T13:10:16Z</time>
      </trkpt>
      <trkpt lat="43.6438" lon="6.12018">
        <ele>508.67</ele>
        <time>2022-04-06T13:10:31Z</time>
      </trkpt>
      <trkpt lat="43.64378" lon="6.1204">
        <ele>509.64</ele>
        <time>2022-04-06T13:10:43Z</time>
      </trkpt>
      <trkpt lat="43.64369" lon="6.12073">
        <ele>513</ele>
        <time>2022-04-06T13:10:58Z</time>
      </trkpt>
      <trkpt lat="43.64357" lon="6.12101">
        <ele>511.08</ele>
        <time>2022-04-06T13:11:16Z</time>
      </trkpt>
      <trkpt lat="43.64353" lon="6.12126">
        <ele>510.6</ele>
        <time>2022-04-06T13:11:31Z</time>
      </trkpt>
      <trkpt lat="43.64351" lon="6.12151">
        <ele>512.04</ele>
        <time>2022-04-06T13:11:45Z</time>
      </trkpt>
      <trkpt lat="43.6435" lon="6.12171">
        <ele>511.56</ele>
        <time>2022-04-06T13:11:58Z</time>
      </trkpt>
      <trkpt lat="43.64349" lon="6.12175">
        <ele>512.04</ele>
        <time>2022-04-06T13:12:00Z</time>
      </trkpt>
      <trkpt lat="43.64342" lon="6.12203">
        <ele>513.96</ele>
        <time>2022-04-06T13:12:15Z</time>
      </trkpt>
      <trkpt lat="43.64336" lon="6.12226">
        <ele>515.4</ele>
        <time>2022-04-06T13:12:27Z</time>
      </trkpt>
      <trkpt lat="43.64333" lon="6.12235">
        <ele>514.92</ele>
        <time>2022-04-06T13:12:32Z</time>
      </trkpt>
      <trkpt lat="43.64328" lon="6.12262">
        <ele>513.96</ele>
        <time>2022-04-06T13:12:48Z</time>
      </trkpt>
      <trkpt lat="43.64321" lon="6.12287">
        <ele>513.48</ele>
        <time>2022-04-06T13:13:02Z</time>
      </trkpt>
      <trkpt lat="43.64305" lon="6.12304">
        <ele>513</ele>
        <time>2022-04-06T13:13:17Z</time>
      </trkpt>
      <trkpt lat="43.64292" lon="6.12314">
        <ele>513.96</ele>
        <time>2022-04-06T13:13:28Z</time>
      </trkpt>
      <trkpt lat="43.64279" lon="6.12299">
        <ele>513.48</ele>
        <time>2022-04-06T13:13:42Z</time>
      </trkpt>
      <trkpt lat="43.64263" lon="6.12276">
        <ele>513</ele>
        <time>2022-04-06T13:13:58Z</time>
      </trkpt>
      <trkpt lat="43.6425" lon="6.12258">
        <ele>515.4</ele>
        <time>2022-04-06T13:14:12Z</time>
      </trkpt>
      <trkpt lat="43.64234" lon="6.12243">
        <ele>516.37</ele>
        <time>2022-04-06T13:14:25Z</time>
      </trkpt>
      <trkpt lat="43.64229" lon="6.12241">
        <ele>516.85</ele>
        <time>2022-04-06T13:14:29Z</time>
      </trkpt>
      <trkpt lat="43.64209" lon="6.1225">
        <ele>519.73</ele>
        <time>2022-04-06T13:14:46Z</time>
      </trkpt>
      <trkpt lat="43.64189" lon="6.12247">
        <ele>521.65</ele>
        <time>2022-04-06T13:15:01Z</time>
      </trkpt>
      <trkpt lat="43.64184" lon="6.12245">
        <ele>521.65</ele>
        <time>2022-04-06T13:15:05Z</time>
      </trkpt>
      <trkpt lat="43.64166" lon="6.12225">
        <ele>522.13</ele>
        <time>2022-04-06T13:15:21Z</time>
      </trkpt>
      <trkpt lat="43.64152" lon="6.12201">
        <ele>519.73</ele>
        <time>2022-04-06T13:15:38Z</time>
      </trkpt>
      <trkpt lat="43.64139" lon="6.12175">
        <ele>515.4</ele>
        <time>2022-04-06T13:15:54Z</time>
      </trkpt>
      <trkpt lat="43.64122" lon="6.12152">
        <ele>515.4</ele>
        <time>2022-04-06T13:16:10Z</time>
      </trkpt>
      <trkpt lat="43.64103" lon="6.12134">
        <ele>516.37</ele>
        <time>2022-04-06T13:16:27Z</time>
      </trkpt>
      <trkpt lat="43.64101" lon="6.12133">
        <ele>516.85</ele>
        <time>2022-04-06T13:16:29Z</time>
      </trkpt>
      <trkpt lat="43.6408" lon="6.12125">
        <ele>520.21</ele>
        <time>2022-04-06T13:16:46Z</time>
      </trkpt>
      <trkpt lat="43.64062" lon="6.12122">
        <ele>521.17</ele>
        <time>2022-04-06T13:17:00Z</time>
      </trkpt>
      <trkpt lat="43.64041" lon="6.12105">
        <ele>522.61</ele>
        <time>2022-04-06T13:17:19Z</time>
      </trkpt>
      <trkpt lat="43.64023" lon="6.12084">
        <ele>523.58</ele>
        <time>2022-04-06T13:17:37Z</time>
      </trkpt>
      <trkpt lat="43.64009" lon="6.12065">
        <ele>522.61</ele>
        <time>2022-04-06T13:17:53Z</time>
      </trkpt>
      <trkpt lat="43.63994" lon="6.12046">
        <ele>524.54</ele>
        <time>2022-04-06T13:18:10Z</time>
      </trkpt>
      <trkpt lat="43.63983" lon="6.12028">
        <ele>525.98</ele>
        <time>2022-04-06T13:18:26Z</time>
      </trkpt>
      <trkpt lat="43.63977" lon="6.12026">
        <ele>525.98</ele>
        <time>2022-04-06T13:18:37Z</time>
      </trkpt>
      <trkpt lat="43.63966" lon="6.12049">
        <ele>521.17</ele>
        <time>2022-04-06T13:18:53Z</time>
      </trkpt>
      <trkpt lat="43.63956" lon="6.12072">
        <ele>518.29</ele>
        <time>2022-04-06T13:19:07Z</time>
      </trkpt>
      <trkpt lat="43.63943" lon="6.12098">
        <ele>516.37</ele>
        <time>2022-04-06T13:19:25Z</time>
      </trkpt>
      <trkpt lat="43.63932" lon="6.12125">
        <ele>516.37</ele>
        <time>2022-04-06T13:19:42Z</time>
      </trkpt>
      <trkpt lat="43.63929" lon="6.12129">
        <ele>516.37</ele>
        <time>2022-04-06T13:19:45Z</time>
      </trkpt>
      <trkpt lat="43.63918" lon="6.12154">
        <ele>517.81</ele>
        <time>2022-04-06T13:20:01Z</time>
      </trkpt>
      <trkpt lat="43.63907" lon="6.12178">
        <ele>520.21</ele>
        <time>2022-04-06T13:20:17Z</time>
      </trkpt>
      <trkpt lat="43.63899" lon="6.12182">
        <ele>523.09</ele>
        <time>2022-04-06T13:20:25Z</time>
      </trkpt>
      <trkpt lat="43.63885" lon="6.12204">
        <ele>522.61</ele>
        <time>2022-04-06T13:20:40Z</time>
      </trkpt>
      <trkpt lat="43.63882" lon="6.1221">
        <ele>522.13</ele>
        <time>2022-04-06T13:20:45Z</time>
      </trkpt>
      <trkpt lat="43.63879" lon="6.12216">
        <ele>522.13</ele>
        <time>2022-04-06T13:20:49Z</time>
      </trkpt>
      <trkpt lat="43.63862" lon="6.12224">
        <ele>522.61</ele>
        <time>2022-04-06T13:21:03Z</time>
      </trkpt>
      <trkpt lat="43.63856" lon="6.12227">
        <ele>521.65</ele>
        <time>2022-04-06T13:21:14Z</time>
      </trkpt>
      <trkpt lat="43.63852" lon="6.1223">
        <ele>521.17</ele>
        <time>2022-04-06T13:21:19Z</time>
      </trkpt>
      <trkpt lat="43.63848" lon="6.12241">
        <ele>521.17</ele>
        <time>2022-04-06T13:21:26Z</time>
      </trkpt>
      <trkpt lat="43.63841" lon="6.12256">
        <ele>521.65</ele>
        <time>2022-04-06T13:21:35Z</time>
      </trkpt>
      <trkpt lat="43.63831" lon="6.12262">
        <ele>521.65</ele>
        <time>2022-04-06T13:21:43Z</time>
      </trkpt>
      <trkpt lat="43.63825" lon="6.12266">
        <ele>521.17</ele>
        <time>2022-04-06T13:21:48Z</time>
      </trkpt>
      <trkpt lat="43.63821" lon="6.12273">
        <ele>519.73</ele>
        <time>2022-04-06T13:21:53Z</time>
      </trkpt>
      <trkpt lat="43.63817" lon="6.12287">
        <ele>519.73</ele>
        <time>2022-04-06T13:22:02Z</time>
      </trkpt>
      <trkpt lat="43.63801" lon="6.1231">
        <ele>521.65</ele>
        <time>2022-04-06T13:22:20Z</time>
      </trkpt>
      <trkpt lat="43.63797" lon="6.12314">
        <ele>521.65</ele>
        <time>2022-04-06T13:22:23Z</time>
      </trkpt>
      <trkpt lat="43.63783" lon="6.1233">
        <ele>523.09</ele>
        <time>2022-04-06T13:22:37Z</time>
      </trkpt>
      <trkpt lat="43.63766" lon="6.12337">
        <ele>525.5</ele>
        <time>2022-04-06T13:22:51Z</time>
      </trkpt>
      <trkpt lat="43.63757" lon="6.12338">
        <ele>525.5</ele>
        <time>2022-04-06T13:22:58Z</time>
      </trkpt>
      <trkpt lat="43.63739" lon="6.12339">
        <ele>527.42</ele>
        <time>2022-04-06T13:23:12Z</time>
      </trkpt>
      <trkpt lat="43.63737" lon="6.12338">
        <ele>527.42</ele>
        <time>2022-04-06T13:23:14Z</time>
      </trkpt>
      <trkpt lat="43.6372" lon="6.12323">
        <ele>525.98</ele>
        <time>2022-04-06T13:23:28Z</time>
      </trkpt>
      <trkpt lat="43.63713" lon="6.12305">
        <ele>523.09</ele>
        <time>2022-04-06T13:23:40Z</time>
      </trkpt>
      <trkpt lat="43.63706" lon="6.12289">
        <ele>522.13</ele>
        <time>2022-04-06T13:23:49Z</time>
      </trkpt>
      <trkpt lat="43.63701" lon="6.1228">
        <ele>521.17</ele>
        <time>2022-04-06T13:23:55Z</time>
      </trkpt>
      <trkpt lat="43.63692" lon="6.12262">
        <ele>521.65</ele>
        <time>2022-04-06T13:24:08Z</time>
      </trkpt>
      <trkpt lat="43.63676" lon="6.12255">
        <ele>524.06</ele>
        <time>2022-04-06T13:24:23Z</time>
      </trkpt>
      <trkpt lat="43.63666" lon="6.12248">
        <ele>524.54</ele>
        <time>2022-04-06T13:24:31Z</time>
      </trkpt>
      <trkpt lat="43.63654" lon="6.12251">
        <ele>525.02</ele>
        <time>2022-04-06T13:24:42Z</time>
      </trkpt>
      <trkpt lat="43.63643" lon="6.12247">
        <ele>524.54</ele>
        <time>2022-04-06T13:24:51Z</time>
      </trkpt>
      <trkpt lat="43.6364" lon="6.12248">
        <ele>525.02</ele>
        <time>2022-04-06T13:24:54Z</time>
      </trkpt>
      <trkpt lat="43.63619" lon="6.1224">
        <ele>526.94</ele>
        <time>2022-04-06T13:25:09Z</time>
      </trkpt>
      <trkpt lat="43.636" lon="6.12226">
        <ele>524.54</ele>
        <time>2022-04-06T13:25:24Z</time>
      </trkpt>
      <trkpt lat="43.63596" lon="6.12223">
        <ele>524.54</ele>
        <time>2022-04-06T13:25:28Z</time>
      </trkpt>
      <trkpt lat="43.63589" lon="6.12222">
        <ele>523.58</ele>
        <time>2022-04-06T13:25:33Z</time>
      </trkpt>
      <trkpt lat="43.63571" lon="6.12218">
        <ele>524.54</ele>
        <time>2022-04-06T13:25:48Z</time>
      </trkpt>
      <trkpt lat="43.6355" lon="6.12203">
        <ele>524.54</ele>
        <time>2022-04-06T13:26:04Z</time>
      </trkpt>
      <trkpt lat="43.63537" lon="6.12184">
        <ele>522.61</ele>
        <time>2022-04-06T13:26:18Z</time>
      </trkpt>
      <trkpt lat="43.63517" lon="6.12173">
        <ele>523.09</ele>
        <time>2022-04-06T13:26:33Z</time>
      </trkpt>
      <trkpt lat="43.63506" lon="6.12166">
        <ele>522.61</ele>
        <time>2022-04-06T13:26:44Z</time>
      </trkpt>
      <trkpt lat="43.63487" lon="6.1216">
        <ele>524.06</ele>
        <time>2022-04-06T13:26:59Z</time>
      </trkpt>
      <trkpt lat="43.63472" lon="6.12156">
        <ele>524.54</ele>
        <time>2022-04-06T13:27:12Z</time>
      </trkpt>
      <trkpt lat="43.63466" lon="6.12172">
        <ele>522.13</ele>
        <time>2022-04-06T13:27:24Z</time>
      </trkpt>
      <trkpt lat="43.63457" lon="6.1219">
        <ele>522.13</ele>
        <time>2022-04-06T13:27:36Z</time>
      </trkpt>
      <trkpt lat="43.63446" lon="6.12213">
        <ele>520.69</ele>
        <time>2022-04-06T13:27:52Z</time>
      </trkpt>
      <trkpt lat="43.6343" lon="6.12225">
        <ele>520.21</ele>
        <time>2022-04-06T13:28:06Z</time>
      </trkpt>
      <trkpt lat="43.63411" lon="6.12242">
        <ele>520.21</ele>
        <time>2022-04-06T13:28:23Z</time>
      </trkpt>
      <trkpt lat="43.63394" lon="6.12269">
        <ele>519.73</ele>
        <time>2022-04-06T13:28:42Z</time>
      </trkpt>
      <trkpt lat="43.63387" lon="6.12283">
        <ele>519.25</ele>
        <time>2022-04-06T13:28:52Z</time>
      </trkpt>
      <trkpt lat="43.63377" lon="6.12316">
        <ele>518.29</ele>
        <time>2022-04-06T13:29:11Z</time>
      </trkpt>
      <trkpt lat="43.63366" lon="6.12336">
        <ele>520.21</ele>
        <time>2022-04-06T13:29:26Z</time>
      </trkpt>
      <trkpt lat="43.6337" lon="6.12362">
        <ele>520.21</ele>
        <time>2022-04-06T13:29:41Z</time>
      </trkpt>
      <trkpt lat="43.63373" lon="6.12388">
        <ele>523.58</ele>
        <time>2022-04-06T13:29:55Z</time>
      </trkpt>
      <trkpt lat="43.63374" lon="6.124">
        <ele>524.06</ele>
        <time>2022-04-06T13:30:01Z</time>
      </trkpt>
      <trkpt lat="43.63375" lon="6.12428">
        <ele>525.98</ele>
        <time>2022-04-06T13:30:16Z</time>
      </trkpt>
      <trkpt lat="43.63376" lon="6.12459">
        <ele>527.9</ele>
        <time>2022-04-06T13:30:32Z</time>
      </trkpt>
      <trkpt lat="43.63371" lon="6.12485">
        <ele>528.86</ele>
        <time>2022-04-06T13:30:46Z</time>
      </trkpt>
      <trkpt lat="43.63361" lon="6.12514">
        <ele>528.86</ele>
        <time>2022-04-06T13:31:02Z</time>
      </trkpt>
      <trkpt lat="43.6335" lon="6.1254">
        <ele>528.38</ele>
        <time>2022-04-06T13:31:18Z</time>
      </trkpt>
      <trkpt lat="43.6335" lon="6.12545">
        <ele>528.38</ele>
        <time>2022-04-06T13:31:21Z</time>
      </trkpt>
      <trkpt lat="43.63352" lon="6.12556">
        <ele>528.86</ele>
        <time>2022-04-06T13:31:27Z</time>
      </trkpt>
      <trkpt lat="43.63357" lon="6.12586">
        <ele>529.34</ele>
        <time>2022-04-06T13:31:43Z</time>
      </trkpt>
      <trkpt lat="43.63365" lon="6.12612">
        <ele>527.42</ele>
        <time>2022-04-06T13:31:59Z</time>
      </trkpt>
      <trkpt lat="43.63365" lon="6.12622">
        <ele>526.46</ele>
        <time>2022-04-06T13:32:05Z</time>
      </trkpt>
      <trkpt lat="43.63366" lon="6.12646">
        <ele>526.46</ele>
        <time>2022-04-06T13:32:18Z</time>
      </trkpt>
      <trkpt lat="43.63376" lon="6.12676">
        <ele>526.46</ele>
        <time>2022-04-06T13:32:36Z</time>
      </trkpt>
      <trkpt lat="43.63386" lon="6.12704">
        <ele>526.94</ele>
        <time>2022-04-06T13:32:52Z</time>
      </trkpt>
      <trkpt lat="43.63392" lon="6.1273">
        <ele>527.42</ele>
        <time>2022-04-06T13:33:06Z</time>
      </trkpt>
      <trkpt lat="43.63389" lon="6.12734">
        <ele>527.9</ele>
        <time>2022-04-06T13:33:09Z</time>
      </trkpt>
      <trkpt lat="43.63363" lon="6.1273">
        <ele>525.02</ele>
        <time>2022-04-06T13:33:28Z</time>
      </trkpt>
      <trkpt lat="43.6334" lon="6.12731">
        <ele>524.06</ele>
        <time>2022-04-06T13:33:45Z</time>
      </trkpt>
      <trkpt lat="43.63316" lon="6.12727">
        <ele>523.58</ele>
        <time>2022-04-06T13:34:04Z</time>
      </trkpt>
      <trkpt lat="43.63289" lon="6.12728">
        <ele>522.13</ele>
        <time>2022-04-06T13:34:28Z</time>
      </trkpt>
      <trkpt lat="43.6327" lon="6.12727">
        <ele>520.21</ele>
        <time>2022-04-06T13:34:44Z</time>
      </trkpt>
      <trkpt lat="43.63265" lon="6.12726">
        <ele>518.77</ele>
        <time>2022-04-06T13:34:48Z</time>
      </trkpt>
      <trkpt lat="43.63245" lon="6.12722">
        <ele>519.25</ele>
        <time>2022-04-06T13:35:04Z</time>
      </trkpt>
      <trkpt lat="43.63225" lon="6.12724">
        <ele>520.69</ele>
        <time>2022-04-06T13:35:20Z</time>
      </trkpt>
      <trkpt lat="43.63203" lon="6.12729">
        <ele>520.69</ele>
        <time>2022-04-06T13:35:37Z</time>
      </trkpt>
      <trkpt lat="43.63192" lon="6.1273">
        <ele>520.21</ele>
        <time>2022-04-06T13:35:46Z</time>
      </trkpt>
      <trkpt lat="43.63167" lon="6.1273">
        <ele>520.21</ele>
        <time>2022-04-06T13:36:05Z</time>
      </trkpt>
      <trkpt lat="43.63146" lon="6.12729">
        <ele>519.25</ele>
        <time>2022-04-06T13:36:22Z</time>
      </trkpt>
      <trkpt lat="43.63122" lon="6.1273">
        <ele>519.25</ele>
        <time>2022-04-06T13:36:39Z</time>
      </trkpt>
      <trkpt lat="43.63103" lon="6.12732">
        <ele>518.29</ele>
        <time>2022-04-06T13:36:54Z</time>
      </trkpt>
      <trkpt lat="43.63079" lon="6.12728">
        <ele>518.29</ele>
        <time>2022-04-06T13:37:12Z</time>
      </trkpt>
      <trkpt lat="43.63061" lon="6.12727">
        <ele>518.29</ele>
        <time>2022-04-06T13:37:26Z</time>
      </trkpt>
      <trkpt lat="43.63038" lon="6.12727">
        <ele>518.29</ele>
        <time>2022-04-06T13:37:42Z</time>
      </trkpt>
      <trkpt lat="43.63015" lon="6.12728">
        <ele>518.29</ele>
        <time>2022-04-06T13:37:59Z</time>
      </trkpt>
      <trkpt lat="43.62994" lon="6.12731">
        <ele>518.29</ele>
        <time>2022-04-06T13:38:15Z</time>
      </trkpt>
      <trkpt lat="43.62984" lon="6.12734">
        <ele>517.81</ele>
        <time>2022-04-06T13:38:23Z</time>
      </trkpt>
      <trkpt lat="43.62963" lon="6.12734">
        <ele>515.88</ele>
        <time>2022-04-06T13:38:39Z</time>
      </trkpt>
      <trkpt lat="43.6294" lon="6.12735">
        <ele>514.92</ele>
        <time>2022-04-06T13:38:55Z</time>
      </trkpt>
      <trkpt lat="43.62924" lon="6.12735">
        <ele>514.44</ele>
        <time>2022-04-06T13:39:08Z</time>
      </trkpt>
      <trkpt lat="43.62921" lon="6.12734">
        <ele>514.44</ele>
        <time>2022-04-06T13:39:10Z</time>
      </trkpt>
      <trkpt lat="43.62902" lon="6.1271">
        <ele>515.4</ele>
        <time>2022-04-06T13:39:27Z</time>
      </trkpt>
      <trkpt lat="43.62889" lon="6.12687">
        <ele>515.88</ele>
        <time>2022-04-06T13:39:43Z</time>
      </trkpt>
      <trkpt lat="43.62877" lon="6.1267">
        <ele>516.37</ele>
        <time>2022-04-06T13:39:56Z</time>
      </trkpt>
      <trkpt lat="43.62874" lon="6.12663">
        <ele>515.88</ele>
        <time>2022-04-06T13:40:02Z</time>
      </trkpt>
      <trkpt lat="43.62883" lon="6.12643">
        <ele>515.88</ele>
        <time>2022-04-06T13:40:15Z</time>
      </trkpt>
      <trkpt lat="43.62887" lon="6.12636">
        <ele>515.88</ele>
        <time>2022-04-06T13:40:20Z</time>
      </trkpt>
      <trkpt lat="43.62896" lon="6.12611">
        <ele>514.44</ele>
        <time>2022-04-06T13:40:36Z</time>
      </trkpt>
      <trkpt lat="43.62897" lon="6.12608">
        <ele>514.44</ele>
        <time>2022-04-06T13:40:38Z</time>
      </trkpt>
      <trkpt lat="43.62897" lon="6.12589">
        <ele>514.92</ele>
        <time>2022-04-06T13:40:50Z</time>
      </trkpt>
      <trkpt lat="43.62896" lon="6.12565">
        <ele>515.88</ele>
        <time>2022-04-06T13:41:02Z</time>
      </trkpt>
      <trkpt lat="43.62907" lon="6.12533">
        <ele>513.96</ele>
        <time>2022-04-06T13:41:20Z</time>
      </trkpt>
      <trkpt lat="43.62907" lon="6.12528">
        <ele>513.96</ele>
        <time>2022-04-06T13:41:23Z</time>
      </trkpt>
      <trkpt lat="43.62914" lon="6.12499">
        <ele>514.44</ele>
        <time>2022-04-06T13:41:40Z</time>
      </trkpt>
      <trkpt lat="43.62921" lon="6.12469">
        <ele>512.52</ele>
        <time>2022-04-06T13:41:57Z</time>
      </trkpt>
      <trkpt lat="43.62919" lon="6.1244">
        <ele>513.48</ele>
        <time>2022-04-06T13:42:13Z</time>
      </trkpt>
      <trkpt lat="43.62917" lon="6.12415">
        <ele>512.04</ele>
        <time>2022-04-06T13:42:28Z</time>
      </trkpt>
      <trkpt lat="43.62915" lon="6.12394">
        <ele>511.56</ele>
        <time>2022-04-06T13:42:41Z</time>
      </trkpt>
      <trkpt lat="43.62912" lon="6.12365">
        <ele>509.64</ele>
        <time>2022-04-06T13:42:57Z</time>
      </trkpt>
      <trkpt lat="43.62911" lon="6.12338">
        <ele>508.19</ele>
        <time>2022-04-06T13:43:12Z</time>
      </trkpt>
      <trkpt lat="43.62911" lon="6.12333">
        <ele>507.71</ele>
        <time>2022-04-06T13:43:15Z</time>
      </trkpt>
      <trkpt lat="43.6291" lon="6.12323">
        <ele>507.23</ele>
        <time>2022-04-06T13:43:20Z</time>
      </trkpt>
      <trkpt lat="43.62906" lon="6.12297">
        <ele>505.79</ele>
        <time>2022-04-06T13:43:36Z</time>
      </trkpt>
      <trkpt lat="43.62898" lon="6.12276">
        <ele>506.75</ele>
        <time>2022-04-06T13:43:49Z</time>
      </trkpt>
      <trkpt lat="43.62905" lon="6.1225">
        <ele>509.16</ele>
        <time>2022-04-06T13:44:03Z</time>
      </trkpt>
      <trkpt lat="43.62905" lon="6.12226">
        <ele>511.08</ele>
        <time>2022-04-06T13:44:18Z</time>
      </trkpt>
      <trkpt lat="43.629" lon="6.12198">
        <ele>511.56</ele>
        <time>2022-04-06T13:44:35Z</time>
      </trkpt>
      <trkpt lat="43.629" lon="6.12176">
        <ele>512.52</ele>
        <time>2022-04-06T13:44:47Z</time>
      </trkpt>
      <trkpt lat="43.62898" lon="6.12152">
        <ele>513</ele>
        <time>2022-04-06T13:45:00Z</time>
      </trkpt>
      <trkpt lat="43.62907" lon="6.12131">
        <ele>512.52</ele>
        <time>2022-04-06T13:45:13Z</time>
      </trkpt>
      <trkpt lat="43.62911" lon="6.1212">
        <ele>511.56</ele>
        <time>2022-04-06T13:45:20Z</time>
      </trkpt>
      <trkpt lat="43.62927" lon="6.12089">
        <ele>513.48</ele>
        <time>2022-04-06T13:45:40Z</time>
      </trkpt>
      <trkpt lat="43.62942" lon="6.12062">
        <ele>514.44</ele>
        <time>2022-04-06T13:45:59Z</time>
      </trkpt>
      <trkpt lat="43.62955" lon="6.1204">
        <ele>514.92</ele>
        <time>2022-04-06T13:46:15Z</time>
      </trkpt>
      <trkpt lat="43.6297" lon="6.12022">
        <ele>514.44</ele>
        <time>2022-04-06T13:46:30Z</time>
      </trkpt>
      <trkpt lat="43.62978" lon="6.12001">
        <ele>514.44</ele>
        <time>2022-04-06T13:46:45Z</time>
      </trkpt>
      <trkpt lat="43.62983" lon="6.11978">
        <ele>512.04</ele>
        <time>2022-04-06T13:46:59Z</time>
      </trkpt>
      <trkpt lat="43.62986" lon="6.11949">
        <ele>511.56</ele>
        <time>2022-04-06T13:47:16Z</time>
      </trkpt>
      <trkpt lat="43.62985" lon="6.11946">
        <ele>512.04</ele>
        <time>2022-04-06T13:47:18Z</time>
      </trkpt>
      <trkpt lat="43.62968" lon="6.11948">
        <ele>514.44</ele>
        <time>2022-04-06T13:47:33Z</time>
      </trkpt>
      <trkpt lat="43.62963" lon="6.11947">
        <ele>514.92</ele>
        <time>2022-04-06T13:47:54Z</time>
      </trkpt>
      <trkpt lat="43.62964" lon="6.11947">
        <ele>515.4</ele>
        <time>2022-04-06T13:48:12Z</time>
      </trkpt>
      <trkpt lat="43.62985" lon="6.1194">
        <ele>515.4</ele>
        <time>2022-04-06T13:48:29Z</time>
      </trkpt>
      <trkpt lat="43.63005" lon="6.11919">
        <ele>516.37</ele>
        <time>2022-04-06T13:48:47Z</time>
      </trkpt>
      <trkpt lat="43.63022" lon="6.11908">
        <ele>515.4</ele>
        <time>2022-04-06T13:49:02Z</time>
      </trkpt>
      <trkpt lat="43.63034" lon="6.11889">
        <ele>514.92</ele>
        <time>2022-04-06T13:49:17Z</time>
      </trkpt>
      <trkpt lat="43.63047" lon="6.11862">
        <ele>516.37</ele>
        <time>2022-04-06T13:49:37Z</time>
      </trkpt>
      <trkpt lat="43.63067" lon="6.11851">
        <ele>518.77</ele>
        <time>2022-04-06T13:49:54Z</time>
      </trkpt>
      <trkpt lat="43.63085" lon="6.11852">
        <ele>518.77</ele>
        <time>2022-04-06T13:50:09Z</time>
      </trkpt>
      <trkpt lat="43.63106" lon="6.1185">
        <ele>519.73</ele>
        <time>2022-04-06T13:50:25Z</time>
      </trkpt>
      <trkpt lat="43.63131" lon="6.11848">
        <ele>519.25</ele>
        <time>2022-04-06T13:50:44Z</time>
      </trkpt>
      <trkpt lat="43.63147" lon="6.11847">
        <ele>520.21</ele>
        <time>2022-04-06T13:50:59Z</time>
      </trkpt>
      <trkpt lat="43.63171" lon="6.11843">
        <ele>520.69</ele>
        <time>2022-04-06T13:51:18Z</time>
      </trkpt>
      <trkpt lat="43.63181" lon="6.11842">
        <ele>520.69</ele>
        <time>2022-04-06T13:51:26Z</time>
      </trkpt>
      <trkpt lat="43.632" lon="6.11837">
        <ele>517.81</ele>
        <time>2022-04-06T13:51:41Z</time>
      </trkpt>
      <trkpt lat="43.63222" lon="6.11832">
        <ele>518.77</ele>
        <time>2022-04-06T13:51:57Z</time>
      </trkpt>
      <trkpt lat="43.63243" lon="6.11829">
        <ele>520.21</ele>
        <time>2022-04-06T13:52:12Z</time>
      </trkpt>
      <trkpt lat="43.63261" lon="6.11825">
        <ele>521.65</ele>
        <time>2022-04-06T13:52:28Z</time>
      </trkpt>
      <trkpt lat="43.63282" lon="6.11825">
        <ele>520.69</ele>
        <time>2022-04-06T13:52:44Z</time>
      </trkpt>
      <trkpt lat="43.63299" lon="6.11829">
        <ele>521.65</ele>
        <time>2022-04-06T13:52:58Z</time>
      </trkpt>
      <trkpt lat="43.63316" lon="6.11826">
        <ele>520.69</ele>
        <time>2022-04-06T13:53:11Z</time>
      </trkpt>
      <trkpt lat="43.63338" lon="6.11816">
        <ele>520.21</ele>
        <time>2022-04-06T13:53:28Z</time>
      </trkpt>
      <trkpt lat="43.6335" lon="6.11811">
        <ele>525.5</ele>
        <time>2022-04-06T13:53:42Z</time>
      </trkpt>
      <trkpt lat="43.63353" lon="6.11811">
        <ele>527.9</ele>
        <time>2022-04-06T13:53:45Z</time>
      </trkpt>
      <trkpt lat="43.63366" lon="6.11813">
        <ele>539.92</ele>
        <time>2022-04-06T13:54:02Z</time>
      </trkpt>
      <trkpt lat="43.63381" lon="6.11817">
        <ele>549.53</ele>
        <time>2022-04-06T13:54:18Z</time>
      </trkpt>
      <trkpt lat="43.63395" lon="6.1182">
        <ele>554.82</ele>
        <time>2022-04-06T13:54:32Z</time>
      </trkpt>
      <trkpt lat="43.63414" lon="6.11821">
        <ele>557.22</ele>
        <time>2022-04-06T13:54:47Z</time>
      </trkpt>
      <trkpt lat="43.63435" lon="6.11824">
        <ele>553.86</ele>
        <time>2022-04-06T13:55:03Z</time>
      </trkpt>
      <trkpt lat="43.63454" lon="6.11827">
        <ele>552.41</ele>
        <time>2022-04-06T13:55:16Z</time>
      </trkpt>
      <trkpt lat="43.63467" lon="6.11839">
        <ele>556.74</ele>
        <time>2022-04-06T13:55:30Z</time>
      </trkpt>
      <trkpt lat="43.63481" lon="6.11844">
        <ele>556.74</ele>
        <time>2022-04-06T13:55:40Z</time>
      </trkpt>
      <trkpt lat="43.635" lon="6.11849">
        <ele>556.26</ele>
        <time>2022-04-06T13:55:54Z</time>
      </trkpt>
      <trkpt lat="43.63518" lon="6.11855">
        <ele>552.9</ele>
        <time>2022-04-06T13:56:07Z</time>
      </trkpt>
      <trkpt lat="43.63537" lon="6.11861">
        <ele>551.93</ele>
        <time>2022-04-06T13:56:21Z</time>
      </trkpt>
      <trkpt lat="43.63539" lon="6.11863">
        <ele>549.05</ele>
        <time>2022-04-06T13:56:33Z</time>
      </trkpt>
      <trkpt lat="43.63543" lon="6.1186">
        <ele>548.09</ele>
        <time>2022-04-06T13:57:02Z</time>
      </trkpt>
      <trkpt lat="43.63545" lon="6.11858">
        <ele>546.65</ele>
        <time>2022-04-06T13:57:23Z</time>
      </trkpt>
      <trkpt lat="43.63547" lon="6.11856">
        <ele>544.24</ele>
        <time>2022-04-06T13:57:44Z</time>
      </trkpt>
      <trkpt lat="43.63547" lon="6.11841">
        <ele>539.92</ele>
        <time>2022-04-06T13:57:56Z</time>
      </trkpt>
      <trkpt lat="43.63543" lon="6.11811">
        <ele>530.79</ele>
        <time>2022-04-06T13:58:11Z</time>
      </trkpt>
      <trkpt lat="43.63535" lon="6.1179">
        <ele>527.42</ele>
        <time>2022-04-06T13:58:25Z</time>
      </trkpt>
      <trkpt lat="43.63518" lon="6.11769">
        <ele>525.5</ele>
        <time>2022-04-06T13:58:42Z</time>
      </trkpt>
      <trkpt lat="43.63516" lon="6.11743">
        <ele>523.09</ele>
        <time>2022-04-06T13:58:57Z</time>
      </trkpt>
      <trkpt lat="43.63514" lon="6.1174">
        <ele>523.09</ele>
        <time>2022-04-06T13:58:59Z</time>
      </trkpt>
      <trkpt lat="43.635" lon="6.1172">
        <ele>523.58</ele>
        <time>2022-04-06T13:59:14Z</time>
      </trkpt>
      <trkpt lat="43.63498" lon="6.11718">
        <ele>524.06</ele>
        <time>2022-04-06T13:59:16Z</time>
      </trkpt>
      <trkpt lat="43.63494" lon="6.11712">
        <ele>525.02</ele>
        <time>2022-04-06T13:59:21Z</time>
      </trkpt>
      <trkpt lat="43.63489" lon="6.11706">
        <ele>525.02</ele>
        <time>2022-04-06T13:59:26Z</time>
      </trkpt>
      <trkpt lat="43.63476" lon="6.11691">
        <ele>525.02</ele>
        <time>2022-04-06T13:59:40Z</time>
      </trkpt>
      <trkpt lat="43.63459" lon="6.11673">
        <ele>524.06</ele>
        <time>2022-04-06T13:59:55Z</time>
      </trkpt>
      <trkpt lat="43.63457" lon="6.11672">
        <ele>524.06</ele>
        <time>2022-04-06T13:59:57Z</time>
      </trkpt>
      <trkpt lat="43.63451" lon="6.11668">
        <ele>523.09</ele>
        <time>2022-04-06T14:00:03Z</time>
      </trkpt>
      <trkpt lat="43.63449" lon="6.11663">
        <ele>522.13</ele>
        <time>2022-04-06T14:00:06Z</time>
      </trkpt>
      <trkpt lat="43.63448" lon="6.11643">
        <ele>519.73</ele>
        <time>2022-04-06T14:00:20Z</time>
      </trkpt>
      <trkpt lat="43.63447" lon="6.11635">
        <ele>518.77</ele>
        <time>2022-04-06T14:00:25Z</time>
      </trkpt>
      <trkpt lat="43.63447" lon="6.11627">
        <ele>518.29</ele>
        <time>2022-04-06T14:00:30Z</time>
      </trkpt>
      <trkpt lat="43.63448" lon="6.11621">
        <ele>518.29</ele>
        <time>2022-04-06T14:00:33Z</time>
      </trkpt>
      <trkpt lat="43.63447" lon="6.1161">
        <ele>517.33</ele>
        <time>2022-04-06T14:00:39Z</time>
      </trkpt>
      <trkpt lat="43.63447" lon="6.11591">
        <ele>517.33</ele>
        <time>2022-04-06T14:00:50Z</time>
      </trkpt>
      <trkpt lat="43.6344" lon="6.11567">
        <ele>516.37</ele>
        <time>2022-04-06T14:01:06Z</time>
      </trkpt>
      <trkpt lat="43.63439" lon="6.11565">
        <ele>516.37</ele>
        <time>2022-04-06T14:01:07Z</time>
      </trkpt>
      <trkpt lat="43.63434" lon="6.1156">
        <ele>517.33</ele>
        <time>2022-04-06T14:01:12Z</time>
      </trkpt>
      <trkpt lat="43.63425" lon="6.11549">
        <ele>519.73</ele>
        <time>2022-04-06T14:01:22Z</time>
      </trkpt>
      <trkpt lat="43.6341" lon="6.11537">
        <ele>523.58</ele>
        <time>2022-04-06T14:01:36Z</time>
      </trkpt>
      <trkpt lat="43.63394" lon="6.11535">
        <ele>525.98</ele>
        <time>2022-04-06T14:01:49Z</time>
      </trkpt>
      <trkpt lat="43.63382" lon="6.1152">
        <ele>525.5</ele>
        <time>2022-04-06T14:02:04Z</time>
      </trkpt>
      <trkpt lat="43.63375" lon="6.11511">
        <ele>526.46</ele>
        <time>2022-04-06T14:02:11Z</time>
      </trkpt>
      <trkpt lat="43.63362" lon="6.11503">
        <ele>527.9</ele>
        <time>2022-04-06T14:02:23Z</time>
      </trkpt>
      <trkpt lat="43.63353" lon="6.11499">
        <ele>528.86</ele>
        <time>2022-04-06T14:02:30Z</time>
      </trkpt>
      <trkpt lat="43.63345" lon="6.11494">
        <ele>528.86</ele>
        <time>2022-04-06T14:02:38Z</time>
      </trkpt>
      <trkpt lat="43.63339" lon="6.11488">
        <ele>529.34</ele>
        <time>2022-04-06T14:02:43Z</time>
      </trkpt>
      <trkpt lat="43.63331" lon="6.11478">
        <ele>529.82</ele>
        <time>2022-04-06T14:02:52Z</time>
      </trkpt>
      <trkpt lat="43.63323" lon="6.11473">
        <ele>530.3</ele>
        <time>2022-04-06T14:03:00Z</time>
      </trkpt>
      <trkpt lat="43.63306" lon="6.11459">
        <ele>530.79</ele>
        <time>2022-04-06T14:03:15Z</time>
      </trkpt>
      <trkpt lat="43.63298" lon="6.11442">
        <ele>531.27</ele>
        <time>2022-04-06T14:03:28Z</time>
      </trkpt>
      <trkpt lat="43.63295" lon="6.11438">
        <ele>530.79</ele>
        <time>2022-04-06T14:03:32Z</time>
      </trkpt>
      <trkpt lat="43.63293" lon="6.11437">
        <ele>530.79</ele>
        <time>2022-04-06T14:03:34Z</time>
      </trkpt>
      <trkpt lat="43.63287" lon="6.1143">
        <ele>530.79</ele>
        <time>2022-04-06T14:03:40Z</time>
      </trkpt>
      <trkpt lat="43.63278" lon="6.11423">
        <ele>532.23</ele>
        <time>2022-04-06T14:03:49Z</time>
      </trkpt>
      <trkpt lat="43.6327" lon="6.11414">
        <ele>532.71</ele>
        <time>2022-04-06T14:04:05Z</time>
      </trkpt>
      <trkpt lat="43.63257" lon="6.11409">
        <ele>530.79</ele>
        <time>2022-04-06T14:04:22Z</time>
      </trkpt>
      <trkpt lat="43.63242" lon="6.11407">
        <ele>525.98</ele>
        <time>2022-04-06T14:04:36Z</time>
      </trkpt>
      <trkpt lat="43.63223" lon="6.114">
        <ele>524.54</ele>
        <time>2022-04-06T14:04:51Z</time>
      </trkpt>
      <trkpt lat="43.63203" lon="6.11391">
        <ele>524.06</ele>
        <time>2022-04-06T14:05:07Z</time>
      </trkpt>
      <trkpt lat="43.63189" lon="6.11383">
        <ele>524.54</ele>
        <time>2022-04-06T14:05:21Z</time>
      </trkpt>
      <trkpt lat="43.63179" lon="6.11376">
        <ele>524.54</ele>
        <time>2022-04-06T14:05:34Z</time>
      </trkpt>
      <trkpt lat="43.63181" lon="6.11377">
        <ele>525.5</ele>
        <time>2022-04-06T14:05:50Z</time>
      </trkpt>
      <trkpt lat="43.63192" lon="6.11385">
        <ele>525.98</ele>
        <time>2022-04-06T14:06:04Z</time>
      </trkpt>
      <trkpt lat="43.63207" lon="6.11394">
        <ele>528.86</ele>
        <time>2022-04-06T14:06:17Z</time>
      </trkpt>
      <trkpt lat="43.63216" lon="6.11397">
        <ele>528.38</ele>
        <time>2022-04-06T14:06:24Z</time>
      </trkpt>
      <trkpt lat="43.63234" lon="6.11404">
        <ele>527.42</ele>
        <time>2022-04-06T14:06:39Z</time>
      </trkpt>
      <trkpt lat="43.63251" lon="6.11407">
        <ele>525.02</ele>
        <time>2022-04-06T14:06:54Z</time>
      </trkpt>
      <trkpt lat="43.63271" lon="6.11415">
        <ele>525.02</ele>
        <time>2022-04-06T14:07:10Z</time>
      </trkpt>
      <trkpt lat="43.63288" lon="6.11429">
        <ele>525.98</ele>
        <time>2022-04-06T14:07:26Z</time>
      </trkpt>
      <trkpt lat="43.63295" lon="6.11436">
        <ele>526.94</ele>
        <time>2022-04-06T14:07:32Z</time>
      </trkpt>
      <trkpt lat="43.63305" lon="6.11452">
        <ele>526.46</ele>
        <time>2022-04-06T14:07:45Z</time>
      </trkpt>
      <trkpt lat="43.6331" lon="6.11458">
        <ele>525.5</ele>
        <time>2022-04-06T14:07:51Z</time>
      </trkpt>
      <trkpt lat="43.63322" lon="6.11471">
        <ele>525.5</ele>
        <time>2022-04-06T14:08:04Z</time>
      </trkpt>
      <trkpt lat="43.63334" lon="6.11482">
        <ele>524.06</ele>
        <time>2022-04-06T14:08:17Z</time>
      </trkpt>
      <trkpt lat="43.63351" lon="6.11496">
        <ele>524.54</ele>
        <time>2022-04-06T14:08:32Z</time>
      </trkpt>
      <trkpt lat="43.63372" lon="6.11505">
        <ele>525.02</ele>
        <time>2022-04-06T14:08:49Z</time>
      </trkpt>
      <trkpt lat="43.63384" lon="6.1152">
        <ele>523.09</ele>
        <time>2022-04-06T14:09:02Z</time>
      </trkpt>
      <trkpt lat="43.63398" lon="6.11534">
        <ele>524.06</ele>
        <time>2022-04-06T14:09:17Z</time>
      </trkpt>
      <trkpt lat="43.63399" lon="6.11534">
        <ele>524.06</ele>
        <time>2022-04-06T14:09:18Z</time>
      </trkpt>
      <trkpt lat="43.63405" lon="6.11536">
        <ele>523.58</ele>
        <time>2022-04-06T14:09:23Z</time>
      </trkpt>
      <trkpt lat="43.6342" lon="6.11543">
        <ele>525.5</ele>
        <time>2022-04-06T14:09:37Z</time>
      </trkpt>
      <trkpt lat="43.63424" lon="6.11548">
        <ele>525.5</ele>
        <time>2022-04-06T14:09:41Z</time>
      </trkpt>
      <trkpt lat="43.63436" lon="6.11559">
        <ele>525.02</ele>
        <time>2022-04-06T14:09:53Z</time>
      </trkpt>
      <trkpt lat="43.63446" lon="6.11577">
        <ele>522.13</ele>
        <time>2022-04-06T14:10:07Z</time>
      </trkpt>
      <trkpt lat="43.63451" lon="6.11595">
        <ele>519.73</ele>
        <time>2022-04-06T14:10:20Z</time>
      </trkpt>
      <trkpt lat="43.6345" lon="6.11603">
        <ele>520.21</ele>
        <time>2022-04-06T14:10:24Z</time>
      </trkpt>
      <trkpt lat="43.6345" lon="6.11621">
        <ele>522.13</ele>
        <time>2022-04-06T14:10:33Z</time>
      </trkpt>
      <trkpt lat="43.63451" lon="6.11649">
        <ele>523.58</ele>
        <time>2022-04-06T14:10:49Z</time>
      </trkpt>
      <trkpt lat="43.63458" lon="6.11668">
        <ele>524.54</ele>
        <time>2022-04-06T14:11:03Z</time>
      </trkpt>
      <trkpt lat="43.63465" lon="6.11677">
        <ele>529.82</ele>
        <time>2022-04-06T14:11:14Z</time>
      </trkpt>
      <trkpt lat="43.63468" lon="6.1168">
        <ele>530.3</ele>
        <time>2022-04-06T14:11:18Z</time>
      </trkpt>
      <trkpt lat="43.63476" lon="6.11691">
        <ele>534.15</ele>
        <time>2022-04-06T14:11:31Z</time>
      </trkpt>
      <trkpt lat="43.63481" lon="6.11698">
        <ele>538.48</ele>
        <time>2022-04-06T14:11:44Z</time>
      </trkpt>
      <trkpt lat="43.63487" lon="6.11705">
        <ele>537.51</ele>
        <time>2022-04-06T14:11:47Z</time>
      </trkpt>
      <trkpt lat="43.63498" lon="6.11718">
        <ele>536.07</ele>
        <time>2022-04-06T14:11:55Z</time>
      </trkpt>
      <trkpt lat="43.63516" lon="6.11747">
        <ele>528.38</ele>
        <time>2022-04-06T14:12:09Z</time>
      </trkpt>
      <trkpt lat="43.63517" lon="6.11762">
        <ele>525.98</ele>
        <time>2022-04-06T14:12:17Z</time>
      </trkpt>
      <trkpt lat="43.63524" lon="6.11775">
        <ele>523.09</ele>
        <time>2022-04-06T14:12:27Z</time>
      </trkpt>
      <trkpt lat="43.63534" lon="6.11786">
        <ele>521.65</ele>
        <time>2022-04-06T14:12:38Z</time>
      </trkpt>
      <trkpt lat="43.63546" lon="6.1181">
        <ele>519.73</ele>
        <time>2022-04-06T14:12:54Z</time>
      </trkpt>
      <trkpt lat="43.63552" lon="6.11832">
        <ele>518.77</ele>
        <time>2022-04-06T14:13:08Z</time>
      </trkpt>
      <trkpt lat="43.63556" lon="6.11841">
        <ele>517.81</ele>
        <time>2022-04-06T14:13:14Z</time>
      </trkpt>
      <trkpt lat="43.6356" lon="6.11851">
        <ele>516.37</ele>
        <time>2022-04-06T14:13:21Z</time>
      </trkpt>
      <trkpt lat="43.63563" lon="6.11856">
        <ele>516.37</ele>
        <time>2022-04-06T14:13:25Z</time>
      </trkpt>
      <trkpt lat="43.63565" lon="6.1186">
        <ele>516.85</ele>
        <time>2022-04-06T14:13:28Z</time>
      </trkpt>
      <trkpt lat="43.63582" lon="6.11868">
        <ele>520.21</ele>
        <time>2022-04-06T14:13:43Z</time>
      </trkpt>
      <trkpt lat="43.63603" lon="6.11878">
        <ele>521.65</ele>
        <time>2022-04-06T14:14:00Z</time>
      </trkpt>
      <trkpt lat="43.63621" lon="6.11887">
        <ele>524.06</ele>
        <time>2022-04-06T14:14:15Z</time>
      </trkpt>
      <trkpt lat="43.63639" lon="6.11896">
        <ele>523.09</ele>
        <time>2022-04-06T14:14:29Z</time>
      </trkpt>
      <trkpt lat="43.63657" lon="6.11906">
        <ele>523.58</ele>
        <time>2022-04-06T14:14:42Z</time>
      </trkpt>
      <trkpt lat="43.63669" lon="6.11904">
        <ele>523.58</ele>
        <time>2022-04-06T14:14:53Z</time>
      </trkpt>
      <trkpt lat="43.6369" lon="6.11902">
        <ele>524.54</ele>
        <time>2022-04-06T14:15:09Z</time>
      </trkpt>
      <trkpt lat="43.63707" lon="6.11903">
        <ele>525.5</ele>
        <time>2022-04-06T14:15:22Z</time>
      </trkpt>
      <trkpt lat="43.63711" lon="6.11904">
        <ele>525.98</ele>
        <time>2022-04-06T14:15:25Z</time>
      </trkpt>
      <trkpt lat="43.63728" lon="6.11913">
        <ele>526.46</ele>
        <time>2022-04-06T14:15:39Z</time>
      </trkpt>
      <trkpt lat="43.63735" lon="6.11919">
        <ele>525.98</ele>
        <time>2022-04-06T14:15:45Z</time>
      </trkpt>
      <trkpt lat="43.6375" lon="6.11926">
        <ele>529.82</ele>
        <time>2022-04-06T14:16:00Z</time>
      </trkpt>
      <trkpt lat="43.63772" lon="6.11928">
        <ele>530.79</ele>
        <time>2022-04-06T14:16:16Z</time>
      </trkpt>
      <trkpt lat="43.63791" lon="6.11931">
        <ele>529.82</ele>
        <time>2022-04-06T14:16:30Z</time>
      </trkpt>
      <trkpt lat="43.63815" lon="6.11933">
        <ele>528.38</ele>
        <time>2022-04-06T14:16:48Z</time>
      </trkpt>
      <trkpt lat="43.63826" lon="6.11938">
        <ele>528.86</ele>
        <time>2022-04-06T14:16:57Z</time>
      </trkpt>
      <trkpt lat="43.63841" lon="6.11947">
        <ele>530.3</ele>
        <time>2022-04-06T14:17:09Z</time>
      </trkpt>
      <trkpt lat="43.63845" lon="6.1195">
        <ele>530.79</ele>
        <time>2022-04-06T14:17:13Z</time>
      </trkpt>
      <trkpt lat="43.63864" lon="6.11965">
        <ele>530.3</ele>
        <time>2022-04-06T14:17:31Z</time>
      </trkpt>
      <trkpt lat="43.63881" lon="6.11976">
        <ele>530.79</ele>
        <time>2022-04-06T14:17:45Z</time>
      </trkpt>
      <trkpt lat="43.63896" lon="6.11988">
        <ele>531.75</ele>
        <time>2022-04-06T14:17:59Z</time>
      </trkpt>
      <trkpt lat="43.63914" lon="6.12">
        <ele>529.34</ele>
        <time>2022-04-06T14:18:14Z</time>
      </trkpt>
      <trkpt lat="43.63932" lon="6.1201">
        <ele>526.94</ele>
        <time>2022-04-06T14:18:29Z</time>
      </trkpt>
      <trkpt lat="43.6395" lon="6.12017">
        <ele>526.46</ele>
        <time>2022-04-06T14:18:43Z</time>
      </trkpt>
      <trkpt lat="43.63969" lon="6.12025">
        <ele>526.46</ele>
        <time>2022-04-06T14:18:58Z</time>
      </trkpt>
      <trkpt lat="43.63973" lon="6.12027">
        <ele>526.46</ele>
        <time>2022-04-06T14:19:01Z</time>
      </trkpt>
      <trkpt lat="43.63976" lon="6.12015">
        <ele>524.54</ele>
        <time>2022-04-06T14:19:10Z</time>
      </trkpt>
      <trkpt lat="43.63964" lon="6.11998">
        <ele>526.46</ele>
        <time>2022-04-06T14:19:25Z</time>
      </trkpt>
      <trkpt lat="43.63952" lon="6.11982">
        <ele>526.46</ele>
        <time>2022-04-06T14:19:39Z</time>
      </trkpt>
      <trkpt lat="43.63941" lon="6.11961">
        <ele>525.5</ele>
        <time>2022-04-06T14:19:54Z</time>
      </trkpt>
      <trkpt lat="43.63934" lon="6.11944">
        <ele>525.02</ele>
        <time>2022-04-06T14:20:05Z</time>
      </trkpt>
      <trkpt lat="43.63927" lon="6.11925">
        <ele>525.98</ele>
        <time>2022-04-06T14:20:18Z</time>
      </trkpt>
      <trkpt lat="43.63921" lon="6.11897">
        <ele>527.42</ele>
        <time>2022-04-06T14:20:35Z</time>
      </trkpt>
      <trkpt lat="43.6392" lon="6.11886">
        <ele>526.46</ele>
        <time>2022-04-06T14:20:41Z</time>
      </trkpt>
      <trkpt lat="43.63909" lon="6.11864">
        <ele>525.02</ele>
        <time>2022-04-06T14:20:56Z</time>
      </trkpt>
      <trkpt lat="43.63902" lon="6.11853">
        <ele>525.02</ele>
        <time>2022-04-06T14:21:05Z</time>
      </trkpt>
      <trkpt lat="43.63899" lon="6.1185">
        <ele>524.54</ele>
        <time>2022-04-06T14:21:08Z</time>
      </trkpt>
      <trkpt lat="43.63885" lon="6.1183">
        <ele>523.09</ele>
        <time>2022-04-06T14:21:23Z</time>
      </trkpt>
      <trkpt lat="43.6387" lon="6.11811">
        <ele>523.58</ele>
        <time>2022-04-06T14:21:38Z</time>
      </trkpt>
      <trkpt lat="43.63864" lon="6.11806">
        <ele>524.54</ele>
        <time>2022-04-06T14:21:43Z</time>
      </trkpt>
      <trkpt lat="43.63849" lon="6.11795">
        <ele>523.58</ele>
        <time>2022-04-06T14:21:57Z</time>
      </trkpt>
      <trkpt lat="43.63834" lon="6.11775">
        <ele>522.13</ele>
        <time>2022-04-06T14:22:13Z</time>
      </trkpt>
      <trkpt lat="43.6382" lon="6.11759">
        <ele>521.17</ele>
        <time>2022-04-06T14:22:29Z</time>
      </trkpt>
      <trkpt lat="43.63814" lon="6.11753">
        <ele>522.13</ele>
        <time>2022-04-06T14:22:35Z</time>
      </trkpt>
      <trkpt lat="43.638" lon="6.11738">
        <ele>522.61</ele>
        <time>2022-04-06T14:22:50Z</time>
      </trkpt>
      <trkpt lat="43.63792" lon="6.11727">
        <ele>525.02</ele>
        <time>2022-04-06T14:23:00Z</time>
      </trkpt>
      <trkpt lat="43.63776" lon="6.11706">
        <ele>528.86</ele>
        <time>2022-04-06T14:23:17Z</time>
      </trkpt>
      <trkpt lat="43.63763" lon="6.11689">
        <ele>529.82</ele>
        <time>2022-04-06T14:23:32Z</time>
      </trkpt>
      <trkpt lat="43.63761" lon="6.11686">
        <ele>530.3</ele>
        <time>2022-04-06T14:23:35Z</time>
      </trkpt>
      <trkpt lat="43.63746" lon="6.11658">
        <ele>529.34</ele>
        <time>2022-04-06T14:23:53Z</time>
      </trkpt>
      <trkpt lat="43.63737" lon="6.11643">
        <ele>528.86</ele>
        <time>2022-04-06T14:24:05Z</time>
      </trkpt>
      <trkpt lat="43.63724" lon="6.11622">
        <ele>526.94</ele>
        <time>2022-04-06T14:24:19Z</time>
      </trkpt>
      <trkpt lat="43.63712" lon="6.11598">
        <ele>529.34</ele>
        <time>2022-04-06T14:24:35Z</time>
      </trkpt>
      <trkpt lat="43.63704" lon="6.11576">
        <ele>532.23</ele>
        <time>2022-04-06T14:24:49Z</time>
      </trkpt>
      <trkpt lat="43.63696" lon="6.11551">
        <ele>531.75</ele>
        <time>2022-04-06T14:25:04Z</time>
      </trkpt>
      <trkpt lat="43.6369" lon="6.1153">
        <ele>532.23</ele>
        <time>2022-04-06T14:25:17Z</time>
      </trkpt>
      <trkpt lat="43.63682" lon="6.11506">
        <ele>528.86</ele>
        <time>2022-04-06T14:25:32Z</time>
      </trkpt>
      <trkpt lat="43.63675" lon="6.11484">
        <ele>526.94</ele>
        <time>2022-04-06T14:25:47Z</time>
      </trkpt>
      <trkpt lat="43.63671" lon="6.11456">
        <ele>525.5</ele>
        <time>2022-04-06T14:26:02Z</time>
      </trkpt>
      <trkpt lat="43.63669" lon="6.11451">
        <ele>525.5</ele>
        <time>2022-04-06T14:26:05Z</time>
      </trkpt>
      <trkpt lat="43.63663" lon="6.11423">
        <ele>526.94</ele>
        <time>2022-04-06T14:26:21Z</time>
      </trkpt>
      <trkpt lat="43.63661" lon="6.11393">
        <ele>527.9</ele>
        <time>2022-04-06T14:26:37Z</time>
      </trkpt>
      <trkpt lat="43.63655" lon="6.11368">
        <ele>528.38</ele>
        <time>2022-04-06T14:26:52Z</time>
      </trkpt>
      <trkpt lat="43.63649" lon="6.11342">
        <ele>530.3</ele>
        <time>2022-04-06T14:27:07Z</time>
      </trkpt>
      <trkpt lat="43.63634" lon="6.11321">
        <ele>530.79</ele>
        <time>2022-04-06T14:27:23Z</time>
      </trkpt>
      <trkpt lat="43.63634" lon="6.1132">
        <ele>533.19</ele>
        <time>2022-04-06T14:27:34Z</time>
      </trkpt>
      <trkpt lat="43.63627" lon="6.11308">
        <ele>533.19</ele>
        <time>2022-04-06T14:27:50Z</time>
      </trkpt>
      <trkpt lat="43.63624" lon="6.11305">
        <ele>532.71</ele>
        <time>2022-04-06T14:27:53Z</time>
      </trkpt>
      <trkpt lat="43.63614" lon="6.1128">
        <ele>531.75</ele>
        <time>2022-04-06T14:28:09Z</time>
      </trkpt>
      <trkpt lat="43.63607" lon="6.11259">
        <ele>531.75</ele>
        <time>2022-04-06T14:28:22Z</time>
      </trkpt>
      <trkpt lat="43.63606" lon="6.11257">
        <ele>531.75</ele>
        <time>2022-04-06T14:28:23Z</time>
      </trkpt>
      <trkpt lat="43.63597" lon="6.11232">
        <ele>531.27</ele>
        <time>2022-04-06T14:28:40Z</time>
      </trkpt>
      <trkpt lat="43.63594" lon="6.11213">
        <ele>532.23</ele>
        <time>2022-04-06T14:28:50Z</time>
      </trkpt>
      <trkpt lat="43.63592" lon="6.11205">
        <ele>532.23</ele>
        <time>2022-04-06T14:28:54Z</time>
      </trkpt>
      <trkpt lat="43.63591" lon="6.11192">
        <ele>533.19</ele>
        <time>2022-04-06T14:29:02Z</time>
      </trkpt>
      <trkpt lat="43.63575" lon="6.11172">
        <ele>533.19</ele>
        <time>2022-04-06T14:29:18Z</time>
      </trkpt>
      <trkpt lat="43.63565" lon="6.11154">
        <ele>532.71</ele>
        <time>2022-04-06T14:29:31Z</time>
      </trkpt>
      <trkpt lat="43.63567" lon="6.1114">
        <ele>532.71</ele>
        <time>2022-04-06T14:29:39Z</time>
      </trkpt>
      <trkpt lat="43.63563" lon="6.11132">
        <ele>533.19</ele>
        <time>2022-04-06T14:29:46Z</time>
      </trkpt>
      <trkpt lat="43.63555" lon="6.1113">
        <ele>532.71</ele>
        <time>2022-04-06T14:29:52Z</time>
      </trkpt>
      <trkpt lat="43.63551" lon="6.11124">
        <ele>532.23</ele>
        <time>2022-04-06T14:29:57Z</time>
      </trkpt>
      <trkpt lat="43.6355" lon="6.11097">
        <ele>530.79</ele>
        <time>2022-04-06T14:30:13Z</time>
      </trkpt>
      <trkpt lat="43.63547" lon="6.11071">
        <ele>532.71</ele>
        <time>2022-04-06T14:30:29Z</time>
      </trkpt>
      <trkpt lat="43.63547" lon="6.11069">
        <ele>533.19</ele>
        <time>2022-04-06T14:30:30Z</time>
      </trkpt>
      <trkpt lat="43.63551" lon="6.1104">
        <ele>534.63</ele>
        <time>2022-04-06T14:30:46Z</time>
      </trkpt>
      <trkpt lat="43.63556" lon="6.11028">
        <ele>533.19</ele>
        <time>2022-04-06T14:30:53Z</time>
      </trkpt>
      <trkpt lat="43.63557" lon="6.11016">
        <ele>531.75</ele>
        <time>2022-04-06T14:31:00Z</time>
      </trkpt>
      <trkpt lat="43.63557" lon="6.11006">
        <ele>530.79</ele>
        <time>2022-04-06T14:31:05Z</time>
      </trkpt>
      <trkpt lat="43.63563" lon="6.10977">
        <ele>529.34</ele>
        <time>2022-04-06T14:31:21Z</time>
      </trkpt>
      <trkpt lat="43.63567" lon="6.10966">
        <ele>528.86</ele>
        <time>2022-04-06T14:31:28Z</time>
      </trkpt>
      <trkpt lat="43.63589" lon="6.10961">
        <ele>529.34</ele>
        <time>2022-04-06T14:31:45Z</time>
      </trkpt>
      <trkpt lat="43.6361" lon="6.10959">
        <ele>530.79</ele>
        <time>2022-04-06T14:32:01Z</time>
      </trkpt>
      <trkpt lat="43.63625" lon="6.10961">
        <ele>531.75</ele>
        <time>2022-04-06T14:32:12Z</time>
      </trkpt>
      <trkpt lat="43.63627" lon="6.10957">
        <ele>531.75</ele>
        <time>2022-04-06T14:32:28Z</time>
      </trkpt>
      <trkpt lat="43.63628" lon="6.10961">
        <ele>531.75</ele>
        <time>2022-04-06T14:32:44Z</time>
      </trkpt>
      <trkpt lat="43.63632" lon="6.10961">
        <ele>532.23</ele>
        <time>2022-04-06T14:32:48Z</time>
      </trkpt>
      <trkpt lat="43.63648" lon="6.10955">
        <ele>532.23</ele>
        <time>2022-04-06T14:33:01Z</time>
      </trkpt>
      <trkpt lat="43.63668" lon="6.10946">
        <ele>530.79</ele>
        <time>2022-04-06T14:33:16Z</time>
      </trkpt>
      <trkpt lat="43.63688" lon="6.10935">
        <ele>532.71</ele>
        <time>2022-04-06T14:33:32Z</time>
      </trkpt>
      <trkpt lat="43.63707" lon="6.10918">
        <ele>533.19</ele>
        <time>2022-04-06T14:33:49Z</time>
      </trkpt>
      <trkpt lat="43.63725" lon="6.10903">
        <ele>534.63</ele>
        <time>2022-04-06T14:34:06Z</time>
      </trkpt>
      <trkpt lat="43.63744" lon="6.10891">
        <ele>535.11</ele>
        <time>2022-04-06T14:34:22Z</time>
      </trkpt>
      <trkpt lat="43.63765" lon="6.10878">
        <ele>534.15</ele>
        <time>2022-04-06T14:34:39Z</time>
      </trkpt>
      <trkpt lat="43.63784" lon="6.10863">
        <ele>533.67</ele>
        <time>2022-04-06T14:34:55Z</time>
      </trkpt>
      <trkpt lat="43.63793" lon="6.10856">
        <ele>533.67</ele>
        <time>2022-04-06T14:35:02Z</time>
      </trkpt>
      <trkpt lat="43.63815" lon="6.10839">
        <ele>535.11</ele>
        <time>2022-04-06T14:35:22Z</time>
      </trkpt>
      <trkpt lat="43.63832" lon="6.10832">
        <ele>536.07</ele>
        <time>2022-04-06T14:35:36Z</time>
      </trkpt>
      <trkpt lat="43.63853" lon="6.10829">
        <ele>534.15</ele>
        <time>2022-04-06T14:35:52Z</time>
      </trkpt>
      <trkpt lat="43.63871" lon="6.10817">
        <ele>534.63</ele>
        <time>2022-04-06T14:36:07Z</time>
      </trkpt>
      <trkpt lat="43.63887" lon="6.10807">
        <ele>536.55</ele>
        <time>2022-04-06T14:36:21Z</time>
      </trkpt>
      <trkpt lat="43.63904" lon="6.10799">
        <ele>537.99</ele>
        <time>2022-04-06T14:36:35Z</time>
      </trkpt>
      <trkpt lat="43.63922" lon="6.10784">
        <ele>537.99</ele>
        <time>2022-04-06T14:36:52Z</time>
      </trkpt>
      <trkpt lat="43.63926" lon="6.10781">
        <ele>538.96</ele>
        <time>2022-04-06T14:36:55Z</time>
      </trkpt>
      <trkpt lat="43.63943" lon="6.10763">
        <ele>539.92</ele>
        <time>2022-04-06T14:37:10Z</time>
      </trkpt>
      <trkpt lat="43.63958" lon="6.10746">
        <ele>541.84</ele>
        <time>2022-04-06T14:37:25Z</time>
      </trkpt>
      <trkpt lat="43.63971" lon="6.10731">
        <ele>540.88</ele>
        <time>2022-04-06T14:37:38Z</time>
      </trkpt>
      <trkpt lat="43.63989" lon="6.10714">
        <ele>538.48</ele>
        <time>2022-04-06T14:37:54Z</time>
      </trkpt>
      <trkpt lat="43.64004" lon="6.10702">
        <ele>538.96</ele>
        <time>2022-04-06T14:38:07Z</time>
      </trkpt>
      <trkpt lat="43.64011" lon="6.10699">
        <ele>538.48</ele>
        <time>2022-04-06T14:38:12Z</time>
      </trkpt>
      <trkpt lat="43.6403" lon="6.10692">
        <ele>538.96</ele>
        <time>2022-04-06T14:38:27Z</time>
      </trkpt>
      <trkpt lat="43.64053" lon="6.10679">
        <ele>540.4</ele>
        <time>2022-04-06T14:38:45Z</time>
      </trkpt>
      <trkpt lat="43.64074" lon="6.10663">
        <ele>538.48</ele>
        <time>2022-04-06T14:39:02Z</time>
      </trkpt>
      <trkpt lat="43.64086" lon="6.10651">
        <ele>538.48</ele>
        <time>2022-04-06T14:39:14Z</time>
      </trkpt>
      <trkpt lat="43.64095" lon="6.10646">
        <ele>538.48</ele>
        <time>2022-04-06T14:39:21Z</time>
      </trkpt>
      <trkpt lat="43.64113" lon="6.10639">
        <ele>537.51</ele>
        <time>2022-04-06T14:39:35Z</time>
      </trkpt>
      <trkpt lat="43.64127" lon="6.10638">
        <ele>536.55</ele>
        <time>2022-04-06T14:39:49Z</time>
      </trkpt>
      <trkpt lat="43.6415" lon="6.10629">
        <ele>535.59</ele>
        <time>2022-04-06T14:40:06Z</time>
      </trkpt>
      <trkpt lat="43.64165" lon="6.10613">
        <ele>536.55</ele>
        <time>2022-04-06T14:40:21Z</time>
      </trkpt>
      <trkpt lat="43.64182" lon="6.10599">
        <ele>534.63</ele>
        <time>2022-04-06T14:40:36Z</time>
      </trkpt>
      <trkpt lat="43.64197" lon="6.10595">
        <ele>532.23</ele>
        <time>2022-04-06T14:40:50Z</time>
      </trkpt>
      <trkpt lat="43.64219" lon="6.10591">
        <ele>531.27</ele>
        <time>2022-04-06T14:41:05Z</time>
      </trkpt>
      <trkpt lat="43.64228" lon="6.10587">
        <ele>530.79</ele>
        <time>2022-04-06T14:41:12Z</time>
      </trkpt>
      <trkpt lat="43.64244" lon="6.1058">
        <ele>529.82</ele>
        <time>2022-04-06T14:41:24Z</time>
      </trkpt>
      <trkpt lat="43.64267" lon="6.1058">
        <ele>529.34</ele>
        <time>2022-04-06T14:41:39Z</time>
      </trkpt>
      <trkpt lat="43.64286" lon="6.10579">
        <ele>529.82</ele>
        <time>2022-04-06T14:41:54Z</time>
      </trkpt>
      <trkpt lat="43.64304" lon="6.10578">
        <ele>531.27</ele>
        <time>2022-04-06T14:42:07Z</time>
      </trkpt>
      <trkpt lat="43.64324" lon="6.1058">
        <ele>533.19</ele>
        <time>2022-04-06T14:42:22Z</time>
      </trkpt>
      <trkpt lat="43.64345" lon="6.10576">
        <ele>532.71</ele>
        <time>2022-04-06T14:42:39Z</time>
      </trkpt>
      <trkpt lat="43.64367" lon="6.10572">
        <ele>533.19</ele>
        <time>2022-04-06T14:42:56Z</time>
      </trkpt>
      <trkpt lat="43.64381" lon="6.1057">
        <ele>533.67</ele>
        <time>2022-04-06T14:43:08Z</time>
      </trkpt>
      <trkpt lat="43.644" lon="6.10581">
        <ele>537.03</ele>
        <time>2022-04-06T14:43:24Z</time>
      </trkpt>
      <trkpt lat="43.6442" lon="6.10588">
        <ele>535.11</ele>
        <time>2022-04-06T14:43:39Z</time>
      </trkpt>
      <trkpt lat="43.64438" lon="6.10601">
        <ele>535.11</ele>
        <time>2022-04-06T14:43:54Z</time>
      </trkpt>
      <trkpt lat="43.64453" lon="6.10616">
        <ele>536.07</ele>
        <time>2022-04-06T14:44:09Z</time>
      </trkpt>
      <trkpt lat="43.64465" lon="6.10634">
        <ele>536.55</ele>
        <time>2022-04-06T14:44:22Z</time>
      </trkpt>
      <trkpt lat="43.64471" lon="6.10646">
        <ele>537.51</ele>
        <time>2022-04-06T14:44:31Z</time>
      </trkpt>
      <trkpt lat="43.64467" lon="6.10672">
        <ele>537.51</ele>
        <time>2022-04-06T14:44:48Z</time>
      </trkpt>
      <trkpt lat="43.64468" lon="6.1068">
        <ele>537.51</ele>
        <time>2022-04-06T14:44:52Z</time>
      </trkpt>
      <trkpt lat="43.64471" lon="6.10697">
        <ele>534.15</ele>
        <time>2022-04-06T14:45:02Z</time>
      </trkpt>
      <trkpt lat="43.64472" lon="6.10702">
        <ele>533.67</ele>
        <time>2022-04-06T14:45:04Z</time>
      </trkpt>
      <trkpt lat="43.6448" lon="6.10726">
        <ele>532.71</ele>
        <time>2022-04-06T14:45:19Z</time>
      </trkpt>
      <trkpt lat="43.64486" lon="6.10738">
        <ele>532.71</ele>
        <time>2022-04-06T14:45:26Z</time>
      </trkpt>
      <trkpt lat="43.64489" lon="6.10745">
        <ele>534.15</ele>
        <time>2022-04-06T14:45:31Z</time>
      </trkpt>
      <trkpt lat="43.64492" lon="6.10751">
        <ele>533.67</ele>
        <time>2022-04-06T14:45:35Z</time>
      </trkpt>
      <trkpt lat="43.64506" lon="6.10773">
        <ele>533.19</ele>
        <time>2022-04-06T14:45:50Z</time>
      </trkpt>
      <trkpt lat="43.64509" lon="6.10776">
        <ele>533.19</ele>
        <time>2022-04-06T14:45:53Z</time>
      </trkpt>
      <trkpt lat="43.64518" lon="6.10802">
        <ele>533.67</ele>
        <time>2022-04-06T14:46:09Z</time>
      </trkpt>
      <trkpt lat="43.64519" lon="6.10804">
        <ele>533.67</ele>
        <time>2022-04-06T14:46:10Z</time>
      </trkpt>
      <trkpt lat="43.64531" lon="6.10826">
        <ele>535.59</ele>
        <time>2022-04-06T14:46:27Z</time>
      </trkpt>
      <trkpt lat="43.64537" lon="6.10848">
        <ele>537.03</ele>
        <time>2022-04-06T14:46:40Z</time>
      </trkpt>
      <trkpt lat="43.64542" lon="6.10872">
        <ele>537.51</ele>
        <time>2022-04-06T14:46:55Z</time>
      </trkpt>
      <trkpt lat="43.64552" lon="6.10893">
        <ele>538.96</ele>
        <time>2022-04-06T14:47:08Z</time>
      </trkpt>
      <trkpt lat="43.64564" lon="6.10917">
        <ele>537.99</ele>
        <time>2022-04-06T14:47:24Z</time>
      </trkpt>
      <trkpt lat="43.64573" lon="6.10947">
        <ele>535.59</ele>
        <time>2022-04-06T14:47:41Z</time>
      </trkpt>
      <trkpt lat="43.64579" lon="6.10962">
        <ele>537.99</ele>
        <time>2022-04-06T14:47:54Z</time>
      </trkpt>
      <trkpt lat="43.64588" lon="6.10981">
        <ele>541.36</ele>
        <time>2022-04-06T14:48:09Z</time>
      </trkpt>
      <trkpt lat="43.64592" lon="6.10991">
        <ele>542.32</ele>
        <time>2022-04-06T14:48:15Z</time>
      </trkpt>
      <trkpt lat="43.64602" lon="6.11014">
        <ele>541.36</ele>
        <time>2022-04-06T14:48:29Z</time>
      </trkpt>
      <trkpt lat="43.64616" lon="6.11044">
        <ele>537.51</ele>
        <time>2022-04-06T14:48:47Z</time>
      </trkpt>
      <trkpt lat="43.64619" lon="6.11076">
        <ele>537.03</ele>
        <time>2022-04-06T14:49:04Z</time>
      </trkpt>
      <trkpt lat="43.64622" lon="6.11084">
        <ele>538.48</ele>
        <time>2022-04-06T14:49:10Z</time>
      </trkpt>
      <trkpt lat="43.64633" lon="6.11109">
        <ele>536.07</ele>
        <time>2022-04-06T14:49:26Z</time>
      </trkpt>
      <trkpt lat="43.64638" lon="6.11118">
        <ele>534.15</ele>
        <time>2022-04-06T14:49:32Z</time>
      </trkpt>
      <trkpt lat="43.64653" lon="6.11141">
        <ele>531.27</ele>
        <time>2022-04-06T14:49:49Z</time>
      </trkpt>
      <trkpt lat="43.64654" lon="6.11142">
        <ele>531.27</ele>
        <time>2022-04-06T14:49:50Z</time>
      </trkpt>
      <trkpt lat="43.64657" lon="6.1115">
        <ele>529.82</ele>
        <time>2022-04-06T14:49:55Z</time>
      </trkpt>
      <trkpt lat="43.64662" lon="6.11174">
        <ele>527.42</ele>
        <time>2022-04-06T14:50:09Z</time>
      </trkpt>
      <trkpt lat="43.64666" lon="6.11182">
        <ele>527.9</ele>
        <time>2022-04-06T14:50:15Z</time>
      </trkpt>
      <trkpt lat="43.6468" lon="6.11203">
        <ele>530.3</ele>
        <time>2022-04-06T14:50:32Z</time>
      </trkpt>
      <trkpt lat="43.64691" lon="6.11218">
        <ele>529.82</ele>
        <time>2022-04-06T14:50:43Z</time>
      </trkpt>
      <trkpt lat="43.64705" lon="6.11234">
        <ele>529.34</ele>
        <time>2022-04-06T14:50:57Z</time>
      </trkpt>
      <trkpt lat="43.64718" lon="6.11255">
        <ele>531.27</ele>
        <time>2022-04-06T14:51:13Z</time>
      </trkpt>
      <trkpt lat="43.64731" lon="6.11278">
        <ele>531.27</ele>
        <time>2022-04-06T14:51:28Z</time>
      </trkpt>
      <trkpt lat="43.64746" lon="6.11296">
        <ele>531.27</ele>
        <time>2022-04-06T14:51:43Z</time>
      </trkpt>
      <trkpt lat="43.64761" lon="6.11312">
        <ele>531.75</ele>
        <time>2022-04-06T14:51:57Z</time>
      </trkpt>
      <trkpt lat="43.64773" lon="6.11329">
        <ele>534.63</ele>
        <time>2022-04-06T14:52:11Z</time>
      </trkpt>
      <trkpt lat="43.64788" lon="6.1135">
        <ele>533.19</ele>
        <time>2022-04-06T14:52:25Z</time>
      </trkpt>
      <trkpt lat="43.64798" lon="6.11376">
        <ele>531.27</ele>
        <time>2022-04-06T14:52:40Z</time>
      </trkpt>
      <trkpt lat="43.64804" lon="6.11402">
        <ele>530.3</ele>
        <time>2022-04-06T14:52:55Z</time>
      </trkpt>
      <trkpt lat="43.64806" lon="6.11409">
        <ele>530.3</ele>
        <time>2022-04-06T14:52:59Z</time>
      </trkpt>
      <trkpt lat="43.6482" lon="6.11432">
        <ele>531.27</ele>
        <time>2022-04-06T14:53:15Z</time>
      </trkpt>
      <trkpt lat="43.64834" lon="6.11447">
        <ele>533.19</ele>
        <time>2022-04-06T14:53:29Z</time>
      </trkpt>
      <trkpt lat="43.6485" lon="6.11464">
        <ele>534.63</ele>
        <time>2022-04-06T14:53:44Z</time>
      </trkpt>
      <trkpt lat="43.64864" lon="6.11477">
        <ele>535.59</ele>
        <time>2022-04-06T14:53:57Z</time>
      </trkpt>
      <trkpt lat="43.64877" lon="6.11492">
        <ele>532.71</ele>
        <time>2022-04-06T14:54:10Z</time>
      </trkpt>
      <trkpt lat="43.64888" lon="6.11513">
        <ele>532.71</ele>
        <time>2022-04-06T14:54:24Z</time>
      </trkpt>
      <trkpt lat="43.64897" lon="6.11532">
        <ele>532.71</ele>
        <time>2022-04-06T14:54:36Z</time>
      </trkpt>
      <trkpt lat="43.64903" lon="6.11551">
        <ele>528.86</ele>
        <time>2022-04-06T14:54:48Z</time>
      </trkpt>
      <trkpt lat="43.64911" lon="6.11572">
        <ele>527.42</ele>
        <time>2022-04-06T14:55:01Z</time>
      </trkpt>
      <trkpt lat="43.64913" lon="6.11576">
        <ele>527.42</ele>
        <time>2022-04-06T14:55:04Z</time>
      </trkpt>
      <trkpt lat="43.64925" lon="6.11603">
        <ele>527.9</ele>
        <time>2022-04-06T14:55:21Z</time>
      </trkpt>
      <trkpt lat="43.64938" lon="6.11624">
        <ele>529.82</ele>
        <time>2022-04-06T14:55:36Z</time>
      </trkpt>
      <trkpt lat="43.64948" lon="6.11649">
        <ele>529.34</ele>
        <time>2022-04-06T14:55:52Z</time>
      </trkpt>
      <trkpt lat="43.64949" lon="6.1165">
        <ele>528.86</ele>
        <time>2022-04-06T14:55:53Z</time>
      </trkpt>
      <trkpt lat="43.64951" lon="6.11653">
        <ele>528.86</ele>
        <time>2022-04-06T14:55:55Z</time>
      </trkpt>
      <trkpt lat="43.64954" lon="6.11662">
        <ele>528.86</ele>
        <time>2022-04-06T14:56:00Z</time>
      </trkpt>
      <trkpt lat="43.6496" lon="6.11681">
        <ele>529.34</ele>
        <time>2022-04-06T14:56:11Z</time>
      </trkpt>
      <trkpt lat="43.6496" lon="6.11686">
        <ele>529.82</ele>
        <time>2022-04-06T14:56:14Z</time>
      </trkpt>
      <trkpt lat="43.64941" lon="6.11705">
        <ele>531.27</ele>
        <time>2022-04-06T14:56:32Z</time>
      </trkpt>
      <trkpt lat="43.64929" lon="6.11706">
        <ele>532.71</ele>
        <time>2022-04-06T14:56:50Z</time>
      </trkpt>
      <trkpt lat="43.64931" lon="6.11706">
        <ele>533.19</ele>
        <time>2022-04-06T14:56:55Z</time>
      </trkpt>
      <trkpt lat="43.64942" lon="6.11708">
        <ele>533.19</ele>
        <time>2022-04-06T14:57:05Z</time>
      </trkpt>
      <trkpt lat="43.64954" lon="6.11699">
        <ele>531.75</ele>
        <time>2022-04-06T14:57:15Z</time>
      </trkpt>
      <trkpt lat="43.6496" lon="6.11691">
        <ele>530.79</ele>
        <time>2022-04-06T14:57:22Z</time>
      </trkpt>
      <trkpt lat="43.64974" lon="6.11712">
        <ele>530.79</ele>
        <time>2022-04-06T14:57:38Z</time>
      </trkpt>
      <trkpt lat="43.64983" lon="6.11732">
        <ele>531.75</ele>
        <time>2022-04-06T14:57:52Z</time>
      </trkpt>
      <trkpt lat="43.64993" lon="6.11759">
        <ele>532.23</ele>
        <time>2022-04-06T14:58:07Z</time>
      </trkpt>
      <trkpt lat="43.65003" lon="6.11785">
        <ele>531.75</ele>
        <time>2022-04-06T14:58:22Z</time>
      </trkpt>
      <trkpt lat="43.65008" lon="6.11799">
        <ele>530.79</ele>
        <time>2022-04-06T14:58:31Z</time>
      </trkpt>
      <trkpt lat="43.6502" lon="6.11825">
        <ele>533.67</ele>
        <time>2022-04-06T14:58:48Z</time>
      </trkpt>
      <trkpt lat="43.65028" lon="6.11854">
        <ele>533.19</ele>
        <time>2022-04-06T14:59:03Z</time>
      </trkpt>
      <trkpt lat="43.65035" lon="6.11884">
        <ele>531.27</ele>
        <time>2022-04-06T14:59:20Z</time>
      </trkpt>
      <trkpt lat="43.6504" lon="6.11908">
        <ele>529.82</ele>
        <time>2022-04-06T14:59:34Z</time>
      </trkpt>
      <trkpt lat="43.65051" lon="6.1194">
        <ele>530.79</ele>
        <time>2022-04-06T14:59:52Z</time>
      </trkpt>
      <trkpt lat="43.6506" lon="6.11968">
        <ele>529.82</ele>
        <time>2022-04-06T15:00:08Z</time>
      </trkpt>
      <trkpt lat="43.65066" lon="6.11998">
        <ele>526.94</ele>
        <time>2022-04-06T15:00:26Z</time>
      </trkpt>
      <trkpt lat="43.65068" lon="6.12028">
        <ele>526.94</ele>
        <time>2022-04-06T15:00:42Z</time>
      </trkpt>
      <trkpt lat="43.65074" lon="6.1206">
        <ele>524.06</ele>
        <time>2022-04-06T15:00:59Z</time>
      </trkpt>
      <trkpt lat="43.65077" lon="6.12089">
        <ele>525.02</ele>
        <time>2022-04-06T15:01:14Z</time>
      </trkpt>
      <trkpt lat="43.65081" lon="6.12104">
        <ele>524.06</ele>
        <time>2022-04-06T15:01:22Z</time>
      </trkpt>
      <trkpt lat="43.65086" lon="6.12132">
        <ele>524.54</ele>
        <time>2022-04-06T15:01:37Z</time>
      </trkpt>
      <trkpt lat="43.6509" lon="6.12165">
        <ele>524.54</ele>
        <time>2022-04-06T15:01:54Z</time>
      </trkpt>
      <trkpt lat="43.65092" lon="6.1217">
        <ele>524.54</ele>
        <time>2022-04-06T15:01:57Z</time>
      </trkpt>
      <trkpt lat="43.651" lon="6.12193">
        <ele>523.58</ele>
        <time>2022-04-06T15:02:10Z</time>
      </trkpt>
      <trkpt lat="43.65107" lon="6.12222">
        <ele>521.65</ele>
        <time>2022-04-06T15:02:26Z</time>
      </trkpt>
      <trkpt lat="43.65114" lon="6.12258">
        <ele>522.61</ele>
        <time>2022-04-06T15:02:44Z</time>
      </trkpt>
      <trkpt lat="43.65122" lon="6.12288">
        <ele>522.61</ele>
        <time>2022-04-06T15:03:00Z</time>
      </trkpt>
      <trkpt lat="43.65129" lon="6.12318">
        <ele>522.61</ele>
        <time>2022-04-06T15:03:17Z</time>
      </trkpt>
      <trkpt lat="43.65133" lon="6.12334">
        <ele>522.61</ele>
        <time>2022-04-06T15:03:26Z</time>
      </trkpt>
      <trkpt lat="43.65149" lon="6.12351">
        <ele>523.09</ele>
        <time>2022-04-06T15:03:42Z</time>
      </trkpt>
      <trkpt lat="43.65164" lon="6.1237">
        <ele>526.46</ele>
        <time>2022-04-06T15:03:56Z</time>
      </trkpt>
      <trkpt lat="43.65177" lon="6.12387">
        <ele>527.42</ele>
        <time>2022-04-06T15:04:11Z</time>
      </trkpt>
      <trkpt lat="43.65192" lon="6.1241">
        <ele>529.34</ele>
        <time>2022-04-06T15:04:27Z</time>
      </trkpt>
      <trkpt lat="43.65195" lon="6.12415">
        <ele>529.34</ele>
        <time>2022-04-06T15:04:30Z</time>
      </trkpt>
      <trkpt lat="43.65207" lon="6.1244">
        <ele>528.86</ele>
        <time>2022-04-06T15:04:46Z</time>
      </trkpt>
      <trkpt lat="43.65215" lon="6.12462">
        <ele>528.86</ele>
        <time>2022-04-06T15:04:59Z</time>
      </trkpt>
      <trkpt lat="43.65216" lon="6.12463">
        <ele>528.38</ele>
        <time>2022-04-06T15:05:00Z</time>
      </trkpt>
      <trkpt lat="43.65228" lon="6.12488">
        <ele>531.27</ele>
        <time>2022-04-06T15:05:15Z</time>
      </trkpt>
      <trkpt lat="43.6524" lon="6.12503">
        <ele>533.19</ele>
        <time>2022-04-06T15:05:29Z</time>
      </trkpt>
      <trkpt lat="43.65254" lon="6.12516">
        <ele>533.67</ele>
        <time>2022-04-06T15:05:43Z</time>
      </trkpt>
      <trkpt lat="43.65262" lon="6.12523">
        <ele>534.63</ele>
        <time>2022-04-06T15:05:50Z</time>
      </trkpt>
      <trkpt lat="43.65264" lon="6.12525">
        <ele>534.63</ele>
        <time>2022-04-06T15:05:52Z</time>
      </trkpt>
      <trkpt lat="43.65282" lon="6.1254">
        <ele>536.55</ele>
        <time>2022-04-06T15:06:08Z</time>
      </trkpt>
      <trkpt lat="43.65285" lon="6.12543">
        <ele>537.03</ele>
        <time>2022-04-06T15:06:11Z</time>
      </trkpt>
      <trkpt lat="43.65289" lon="6.12547">
        <ele>538.48</ele>
        <time>2022-04-06T15:06:20Z</time>
      </trkpt>
      <trkpt lat="43.65307" lon="6.12567">
        <ele>539.44</ele>
        <time>2022-04-06T15:06:35Z</time>
      </trkpt>
      <trkpt lat="43.65327" lon="6.1258">
        <ele>539.92</ele>
        <time>2022-04-06T15:06:50Z</time>
      </trkpt>
      <trkpt lat="43.65347" lon="6.12595">
        <ele>539.92</ele>
        <time>2022-04-06T15:07:06Z</time>
      </trkpt>
      <trkpt lat="43.65364" lon="6.12611">
        <ele>541.36</ele>
        <time>2022-04-06T15:07:22Z</time>
      </trkpt>
      <trkpt lat="43.65379" lon="6.12623">
        <ele>542.32</ele>
        <time>2022-04-06T15:07:36Z</time>
      </trkpt>
      <trkpt lat="43.654" lon="6.12637">
        <ele>540.88</ele>
        <time>2022-04-06T15:07:53Z</time>
      </trkpt>
      <trkpt lat="43.65403" lon="6.12658">
        <ele>532.71</ele>
        <time>2022-04-06T15:08:07Z</time>
      </trkpt>
      <trkpt lat="43.65408" lon="6.12669">
        <ele>531.27</ele>
        <time>2022-04-06T15:08:18Z</time>
      </trkpt>
      <trkpt lat="43.65425" lon="6.1268">
        <ele>528.38</ele>
        <time>2022-04-06T15:08:33Z</time>
      </trkpt>
      <trkpt lat="43.65427" lon="6.12681">
        <ele>528.38</ele>
        <time>2022-04-06T15:08:47Z</time>
      </trkpt>
      <trkpt lat="43.65427" lon="6.12685">
        <ele>528.86</ele>
        <time>2022-04-06T15:08:55Z</time>
      </trkpt>
      <trkpt lat="43.65428" lon="6.12696">
        <ele>528.86</ele>
        <time>2022-04-06T15:09:02Z</time>
      </trkpt>
      <trkpt lat="43.65435" lon="6.12704">
        <ele>527.42</ele>
        <time>2022-04-06T15:09:19Z</time>
      </trkpt>
      <trkpt lat="43.65435" lon="6.12703">
        <ele>526.94</ele>
        <time>2022-04-06T15:09:39Z</time>
      </trkpt>
      <trkpt lat="43.65435" lon="6.12703">
        <ele>526.94</ele>
        <time>2022-04-06T15:09:59Z</time>
      </trkpt>
      <trkpt lat="43.65435" lon="6.12704">
        <ele>526.94</ele>
        <time>2022-04-06T15:10:34Z</time>
      </trkpt>
      <trkpt lat="43.65435" lon="6.12703">
        <ele>526.46</ele>
        <time>2022-04-06T15:11:10Z</time>
      </trkpt>
      <trkpt lat="43.65435" lon="6.12702">
        <ele>525.98</ele>
        <time>2022-04-06T15:11:52Z</time>
      </trkpt>
      <trkpt lat="43.65435" lon="6.12702">
        <ele>525.98</ele>
        <time>2022-04-06T15:12:28Z</time>
      </trkpt>
      <trkpt lat="43.65434" lon="6.12702">
        <ele>526.46</ele>
        <time>2022-04-06T15:13:12Z</time>
      </trkpt>
      <trkpt lat="43.65434" lon="6.12703">
        <ele>526.94</ele>
        <time>2022-04-06T15:13:48Z</time>
      </trkpt>
      <trkpt lat="43.65434" lon="6.12703">
        <ele>527.42</ele>
        <time>2022-04-06T15:14:19Z</time>
      </trkpt>
      <trkpt lat="43.65433" lon="6.12704">
        <ele>527.42</ele>
        <time>2022-04-06T15:14:52Z</time>
      </trkpt>
    </trkseg>
  </trk>
</gpx>